<?xml version='1.0' encoding='utf-8'?>
<gpx xmlns="http://www.topografix.com/GPX/1/1" xmlns:xsi="http://www.w3.org/2001/XMLSchema-instance" version="v1.1.5" creator="iTravel Tech Inc. - http://www.itravel-tech.com" xsi:schemaLocation="http://www.topografix.com/GPX/1/1 http://www.topografix.com/GPX/1/1/gpx.xsd http://www.topografix.com/GPX/gpx_overlay/0/3 http://www.topografix.com/GPX/gpx_overlay/0/3/gpx_overlay.xsd http://www.topografix.com/GPX/gpx_modified/0/1 http://www.topografix.com/GPX/gpx_modified/0/1/gpx_modified.xsd">
<trk>
<name>Holux2010/06/20_10:29</name>
<trkseg>
<trkpt lat="55.900230" lon="26.528484">
<ele>110.1</ele>
<time>2010-06-20T07:29:53Z</time>
<desc>lat.=55.900230, lon.=26.528484, Alt.=159.673950m. Speed=0.108000m/h.</desc>
<speed>0.030000</speed>
</trkpt>
<trkpt lat="55.900192" lon="26.528294">
<ele>109.9</ele>
<time>2010-06-20T07:29:55Z</time>
<desc>lat.=55.900192, lon.=26.528294, Alt.=171.525513m. Speed=0.288000m/h.</desc>
<speed>0.080000</speed>
</trkpt>
<trkpt lat="55.900127" lon="26.528889">
<ele>110.1</ele>
<time>2010-06-20T07:30:37Z</time>
<desc>lat.=55.900127, lon.=26.528889, Alt.=114.319397m. Speed=6.840000m/h.</desc>
<speed>1.900000</speed>
</trkpt>
<trkpt lat="55.899635" lon="26.529814">
<ele>109.8</ele>
<time>2010-06-20T07:31:10Z</time>
<desc>lat.=55.899635, lon.=26.529814, Alt.=115.241272m. Speed=7.668000m/h.</desc>
<speed>2.130000</speed>
</trkpt>
<trkpt lat="55.898411" lon="26.528328">
<ele>110.8</ele>
<time>2010-06-20T07:32:35Z</time>
<desc>lat.=55.898411, lon.=26.528328, Alt.=129.986450m. Speed=6.300000m/h.</desc>
<speed>1.750000</speed>
</trkpt>
<trkpt lat="55.898380" lon="26.527660">
<ele>109.3</ele>
<time>2010-06-20T07:33:01Z</time>
<desc>lat.=55.898380, lon.=26.527660, Alt.=124.262756m. Speed=9.144000m/h.</desc>
<speed>2.540000</speed>
</trkpt>
<trkpt lat="55.898022" lon="26.527018">
<ele>109.6</ele>
<time>2010-06-20T07:33:20Z</time>
<desc>lat.=55.898022, lon.=26.527018, Alt.=115.176819m. Speed=7.920000m/h.</desc>
<speed>2.200000</speed>
</trkpt>
<trkpt lat="55.898277" lon="26.526194">
<ele>108.0</ele>
<time>2010-06-20T07:33:42Z</time>
<desc>lat.=55.898277, lon.=26.526194, Alt.=110.637756m. Speed=8.928000m/h.</desc>
<speed>2.480000</speed>
</trkpt>
<trkpt lat="55.898834" lon="26.525242">
<ele>107.1</ele>
<time>2010-06-20T07:34:26Z</time>
<desc>lat.=55.898834, lon.=26.525242, Alt.=106.643616m. Speed=10.368000m/h.</desc>
<speed>2.880000</speed>
</trkpt>
<trkpt lat="55.898506" lon="26.524761">
<ele>105.3</ele>
<time>2010-06-20T07:34:37Z</time>
<desc>lat.=55.898506, lon.=26.524761, Alt.=106.971741m. Speed=18.431999m/h.</desc>
<speed>5.120000</speed>
</trkpt>
<trkpt lat="55.896843" lon="26.520517">
<ele>97.2</ele>
<time>2010-06-20T07:35:23Z</time>
<desc>lat.=55.896843, lon.=26.520517, Alt.=103.686584m. Speed=13.212000m/h.</desc>
<speed>3.670000</speed>
</trkpt>
<trkpt lat="55.897999" lon="26.519444">
<ele>97.2</ele>
<time>2010-06-20T07:35:56Z</time>
<desc>lat.=55.897999, lon.=26.519444, Alt.=97.827209m. Speed=15.444000m/h.</desc>
<speed>4.290000</speed>
</trkpt>
<trkpt lat="55.902271" lon="26.514025">
<ele>97.4</ele>
<time>2010-06-20T07:37:55Z</time>
<desc>lat.=55.902271, lon.=26.514025, Alt.=105.432678m. Speed=14.724000m/h.</desc>
<speed>4.090000</speed>
</trkpt>
<trkpt lat="55.903645" lon="26.513681">
<ele>101.4</ele>
<time>2010-06-20T07:38:32Z</time>
<desc>lat.=55.903645, lon.=26.513681, Alt.=104.766663m. Speed=13.680000m/h.</desc>
<speed>3.800000</speed>
</trkpt>
<trkpt lat="55.907265" lon="26.511877">
<ele>98.2</ele>
<time>2010-06-20T07:39:50Z</time>
<desc>lat.=55.907265, lon.=26.511877, Alt.=103.219788m. Speed=24.768000m/h.</desc>
<speed>6.880000</speed>
</trkpt>
<trkpt lat="55.912041" lon="26.512388">
<ele>101.3</ele>
<time>2010-06-20T07:42:46Z</time>
<desc>lat.=55.912041, lon.=26.512388, Alt.=96.135803m. Speed=7.740000m/h.</desc>
<speed>2.150000</speed>
</trkpt>
<trkpt lat="55.913158" lon="26.512280">
<ele>100.9</ele>
<time>2010-06-20T07:43:20Z</time>
<desc>lat.=55.913158, lon.=26.512280, Alt.=96.342834m. Speed=5.292000m/h.</desc>
<speed>1.470000</speed>
</trkpt>
<trkpt lat="55.913849" lon="26.511812">
<ele>104.1</ele>
<time>2010-06-20T07:43:48Z</time>
<desc>lat.=55.913849, lon.=26.511812, Alt.=111.491272m. Speed=7.200000m/h.</desc>
<speed>2.000000</speed>
</trkpt>
<trkpt lat="55.914246" lon="26.510818">
<ele>105.3</ele>
<time>2010-06-20T07:44:09Z</time>
<desc>lat.=55.914246, lon.=26.510818, Alt.=124.844788m. Speed=8.676000m/h.</desc>
<speed>2.410000</speed>
</trkpt>
<trkpt lat="55.916061" lon="26.508362">
<ele>115.3</ele>
<time>2010-06-20T07:45:25Z</time>
<desc>lat.=55.916061, lon.=26.508362, Alt.=126.670959m. Speed=6.048000m/h.</desc>
<speed>1.680000</speed>
</trkpt>
<trkpt lat="55.918148" lon="26.506388">
<ele>120.0</ele>
<time>2010-06-20T07:46:34Z</time>
<desc>lat.=55.918148, lon.=26.506388, Alt.=112.727600m. Speed=7.920000m/h.</desc>
<speed>2.200000</speed>
</trkpt>
<trkpt lat="55.919807" lon="26.506266">
<ele>122.6</ele>
<time>2010-06-20T07:47:25Z</time>
<desc>lat.=55.919807, lon.=26.506266, Alt.=109.844788m. Speed=8.460000m/h.</desc>
<speed>2.350000</speed>
</trkpt>
<trkpt lat="55.921635" lon="26.505783">
<ele>118.1</ele>
<time>2010-06-20T07:48:18Z</time>
<desc>lat.=55.921635, lon.=26.505783, Alt.=96.993225m. Speed=7.956000m/h.</desc>
<speed>2.210000</speed>
</trkpt>
<trkpt lat="55.924397" lon="26.506062">
<ele>113.3</ele>
<time>2010-06-20T07:49:35Z</time>
<desc>lat.=55.924397, lon.=26.506062, Alt.=112.301819m. Speed=10.368000m/h.</desc>
<speed>2.880000</speed>
</trkpt>
<trkpt lat="55.924866" lon="26.506496">
<ele>109.7</ele>
<time>2010-06-20T07:49:51Z</time>
<desc>lat.=55.924866, lon.=26.506496, Alt.=113.557678m. Speed=6.588000m/h.</desc>
<speed>1.830000</speed>
</trkpt>
<trkpt lat="55.925472" lon="26.507872">
<ele>122.6</ele>
<time>2010-06-20T07:50:24Z</time>
<desc>lat.=55.925472, lon.=26.507872, Alt.=121.288147m. Speed=5.436000m/h.</desc>
<speed>1.510000</speed>
</trkpt>
<trkpt lat="55.925812" lon="26.508234">
<ele>122.5</ele>
<time>2010-06-20T07:50:36Z</time>
<desc>lat.=55.925812, lon.=26.508234, Alt.=123.497131m. Speed=7.488000m/h.</desc>
<speed>2.080000</speed>
</trkpt>
<trkpt lat="55.927654" lon="26.509315">
<ele>110.7</ele>
<time>2010-06-20T07:51:39Z</time>
<desc>lat.=55.927654, lon.=26.509315, Alt.=114.352600m. Speed=6.840000m/h.</desc>
<speed>1.900000</speed>
</trkpt>
<trkpt lat="55.928947" lon="26.510714">
<ele>121.6</ele>
<time>2010-06-20T07:52:29Z</time>
<desc>lat.=55.928947, lon.=26.510714, Alt.=117.122131m. Speed=5.724000m/h.</desc>
<speed>1.590000</speed>
</trkpt>
<trkpt lat="55.930138" lon="26.511377">
<ele>127.9</ele>
<time>2010-06-20T07:53:10Z</time>
<desc>lat.=55.930138, lon.=26.511377, Alt.=124.626038m. Speed=12.888000m/h.</desc>
<speed>3.580000</speed>
</trkpt>
<trkpt lat="55.931892" lon="26.513002">
<ele>121.0</ele>
<time>2010-06-20T07:54:18Z</time>
<desc>lat.=55.931892, lon.=26.513002, Alt.=120.891663m. Speed=9.288000m/h.</desc>
<speed>2.580000</speed>
</trkpt>
<trkpt lat="55.933968" lon="26.513330">
<ele>130.6</ele>
<time>2010-06-20T07:55:33Z</time>
<desc>lat.=55.933968, lon.=26.513330, Alt.=106.383850m. Speed=5.724000m/h.</desc>
<speed>1.590000</speed>
</trkpt>
<trkpt lat="55.935310" lon="26.514212">
<ele>125.8</ele>
<time>2010-06-20T07:56:19Z</time>
<desc>lat.=55.935310, lon.=26.514212, Alt.=99.692444m. Speed=7.920000m/h.</desc>
<speed>2.200000</speed>
</trkpt>
<trkpt lat="55.936642" lon="26.516054">
<ele>114.5</ele>
<time>2010-06-20T07:57:06Z</time>
<desc>lat.=55.936642, lon.=26.516054, Alt.=97.901428m. Speed=11.736000m/h.</desc>
<speed>3.260000</speed>
</trkpt>
<trkpt lat="55.939171" lon="26.518057">
<ele>128.3</ele>
<time>2010-06-20T07:59:23Z</time>
<desc>lat.=55.939171, lon.=26.518057, Alt.=112.127991m. Speed=3.888000m/h.</desc>
<speed>1.080000</speed>
</trkpt>
<trkpt lat="55.940727" lon="26.520222">
<ele>132.7</ele>
<time>2010-06-20T08:00:33Z</time>
<desc>lat.=55.940727, lon.=26.520222, Alt.=118.942444m. Speed=5.976000m/h.</desc>
<speed>1.660000</speed>
</trkpt>
<trkpt lat="55.942619" lon="26.521301">
<ele>116.8</ele>
<time>2010-06-20T08:02:20Z</time>
<desc>lat.=55.942619, lon.=26.521301, Alt.=102.879944m. Speed=7.236000m/h.</desc>
<speed>2.010000</speed>
</trkpt>
<trkpt lat="55.944683" lon="26.524681">
<ele>126.2</ele>
<time>2010-06-20T08:04:11Z</time>
<desc>lat.=55.944683, lon.=26.524681, Alt.=121.696350m. Speed=5.868000m/h.</desc>
<speed>1.630000</speed>
</trkpt>
<trkpt lat="55.948288" lon="26.528475">
<ele>124.8</ele>
<time>2010-06-20T08:06:06Z</time>
<desc>lat.=55.948288, lon.=26.528475, Alt.=117.194397m. Speed=8.136000m/h.</desc>
<speed>2.260000</speed>
</trkpt>
<trkpt lat="55.949657" lon="26.531410">
<ele>130.2</ele>
<time>2010-06-20T08:07:20Z</time>
<desc>lat.=55.949657, lon.=26.531410, Alt.=88.397522m. Speed=8.136000m/h.</desc>
<speed>2.260000</speed>
</trkpt>
<trkpt lat="55.950867" lon="26.531910">
<ele>122.2</ele>
<time>2010-06-20T08:08:00Z</time>
<desc>lat.=55.950867, lon.=26.531910, Alt.=84.364319m. Speed=2.988000m/h.</desc>
<speed>0.830000</speed>
</trkpt>
<trkpt lat="55.951405" lon="26.532536">
<ele>130.9</ele>
<time>2010-06-20T08:08:19Z</time>
<desc>lat.=55.951405, lon.=26.532536, Alt.=80.200256m. Speed=11.880000m/h.</desc>
<speed>3.300000</speed>
</trkpt>
<trkpt lat="55.951824" lon="26.533438">
<ele>133.1</ele>
<time>2010-06-20T08:08:43Z</time>
<desc>lat.=55.951824, lon.=26.533438, Alt.=84.713928m. Speed=9.180000m/h.</desc>
<speed>2.550000</speed>
</trkpt>
<trkpt lat="55.952068" lon="26.534651">
<ele>130.0</ele>
<time>2010-06-20T08:09:13Z</time>
<desc>lat.=55.952068, lon.=26.534651, Alt.=81.022522m. Speed=6.876000m/h.</desc>
<speed>1.910000</speed>
</trkpt>
<trkpt lat="55.952381" lon="26.535152">
<ele>131.2</ele>
<time>2010-06-20T08:09:22Z</time>
<desc>lat.=55.952381, lon.=26.535152, Alt.=82.813538m. Speed=6.156000m/h.</desc>
<speed>1.710000</speed>
</trkpt>
<trkpt lat="55.952221" lon="26.535488">
<ele>131.7</ele>
<time>2010-06-20T08:09:28Z</time>
<desc>lat.=55.952221, lon.=26.535488, Alt.=83.667053m. Speed=8.892000m/h.</desc>
<speed>2.470000</speed>
</trkpt>
<trkpt lat="55.952274" lon="26.536083">
<ele>132.6</ele>
<time>2010-06-20T08:09:39Z</time>
<desc>lat.=55.952274, lon.=26.536083, Alt.=77.225647m. Speed=10.584000m/h.</desc>
<speed>2.940000</speed>
</trkpt>
<trkpt lat="55.955273" lon="26.538862">
<ele>118.4</ele>
<time>2010-06-20T08:14:19Z</time>
<desc>lat.=55.955273, lon.=26.538862, Alt.=90.948303m. Speed=11.340000m/h.</desc>
<speed>3.150000</speed>
</trkpt>
<trkpt lat="55.957455" lon="26.541410">
<ele>124.2</ele>
<time>2010-06-20T08:16:42Z</time>
<desc>lat.=55.957455, lon.=26.541410, Alt.=109.854553m. Speed=4.968000m/h.</desc>
<speed>1.380000</speed>
</trkpt>
<trkpt lat="55.959415" lon="26.542141">
<ele>120.6</ele>
<time>2010-06-20T08:17:55Z</time>
<desc>lat.=55.959415, lon.=26.542141, Alt.=95.411194m. Speed=11.844000m/h.</desc>
<speed>3.290000</speed>
</trkpt>
<trkpt lat="55.961601" lon="26.543697">
<ele>131.0</ele>
<time>2010-06-20T08:19:12Z</time>
<desc>lat.=55.961601, lon.=26.543697, Alt.=106.569397m. Speed=6.912000m/h.</desc>
<speed>1.920000</speed>
</trkpt>
<trkpt lat="55.962170" lon="26.543642">
<ele>128.3</ele>
<time>2010-06-20T08:19:31Z</time>
<desc>lat.=55.962170, lon.=26.543642, Alt.=106.395569m. Speed=9.432000m/h.</desc>
<speed>2.620000</speed>
</trkpt>
<trkpt lat="55.963558" lon="26.542406">
<ele>129.7</ele>
<time>2010-06-20T08:20:25Z</time>
<desc>lat.=55.963558, lon.=26.542406, Alt.=107.178772m. Speed=11.268000m/h.</desc>
<speed>3.130000</speed>
</trkpt>
<trkpt lat="55.964428" lon="26.541994">
<ele>122.7</ele>
<time>2010-06-20T08:20:53Z</time>
<desc>lat.=55.964428, lon.=26.541994, Alt.=108.903381m. Speed=11.448000m/h.</desc>
<speed>3.180000</speed>
</trkpt>
<trkpt lat="55.966476" lon="26.541586">
<ele>111.6</ele>
<time>2010-06-20T08:22:05Z</time>
<desc>lat.=55.966476, lon.=26.541586, Alt.=101.458069m. Speed=8.640000m/h.</desc>
<speed>2.400000</speed>
</trkpt>
<trkpt lat="55.967377" lon="26.541668">
<ele>120.0</ele>
<time>2010-06-20T08:22:37Z</time>
<desc>lat.=55.967377, lon.=26.541668, Alt.=105.077209m. Speed=7.668000m/h.</desc>
<speed>2.130000</speed>
</trkpt>
<trkpt lat="55.968136" lon="26.542057">
<ele>120.7</ele>
<time>2010-06-20T08:23:06Z</time>
<desc>lat.=55.968136, lon.=26.542057, Alt.=93.786194m. Speed=11.520000m/h.</desc>
<speed>3.200000</speed>
</trkpt>
<trkpt lat="55.969795" lon="26.543659">
<ele>124.6</ele>
<time>2010-06-20T08:23:59Z</time>
<desc>lat.=55.969795, lon.=26.543659, Alt.=85.532288m. Speed=12.924000m/h.</desc>
<speed>3.590000</speed>
</trkpt>
<trkpt lat="55.971657" lon="26.544487">
<ele>113.6</ele>
<time>2010-06-20T08:25:04Z</time>
<desc>lat.=55.971657, lon.=26.544487, Alt.=93.471741m. Speed=6.624000m/h.</desc>
<speed>1.840000</speed>
</trkpt>
<trkpt lat="55.972359" lon="26.545040">
<ele>107.7</ele>
<time>2010-06-20T08:25:27Z</time>
<desc>lat.=55.972359, lon.=26.545040, Alt.=95.430725m. Speed=13.752000m/h.</desc>
<speed>3.820000</speed>
</trkpt>
<trkpt lat="55.973286" lon="26.546329">
<ele>113.6</ele>
<time>2010-06-20T08:26:04Z</time>
<desc>lat.=55.973286, lon.=26.546329, Alt.=89.057678m. Speed=12.348000m/h.</desc>
<speed>3.430000</speed>
</trkpt>
<trkpt lat="55.974056" lon="26.547911">
<ele>109.7</ele>
<time>2010-06-20T08:26:38Z</time>
<desc>lat.=55.974056, lon.=26.547911, Alt.=95.565491m. Speed=13.860000m/h.</desc>
<speed>3.850000</speed>
</trkpt>
<trkpt lat="55.974960" lon="26.548944">
<ele>106.5</ele>
<time>2010-06-20T08:27:03Z</time>
<desc>lat.=55.974960, lon.=26.548944, Alt.=93.686584m. Speed=14.508000m/h.</desc>
<speed>4.030000</speed>
</trkpt>
<trkpt lat="55.975372" lon="26.549011">
<ele>114.1</ele>
<time>2010-06-20T08:28:37Z</time>
<desc>lat.=55.975372, lon.=26.549011, Alt.=88.217834m. Speed=4.680000m/h.</desc>
<speed>1.300000</speed>
</trkpt>
<trkpt lat="55.976738" lon="26.550131">
<ele>106.8</ele>
<time>2010-06-20T08:29:47Z</time>
<desc>lat.=55.976738, lon.=26.550131, Alt.=88.616272m. Speed=7.956000m/h.</desc>
<speed>2.210000</speed>
</trkpt>
<trkpt lat="55.977417" lon="26.549915">
<ele>106.5</ele>
<time>2010-06-20T08:30:14Z</time>
<desc>lat.=55.977417, lon.=26.549915, Alt.=81.641663m. Speed=12.816000m/h.</desc>
<speed>3.560000</speed>
</trkpt>
<trkpt lat="55.978256" lon="26.550093">
<ele>107.2</ele>
<time>2010-06-20T08:30:43Z</time>
<desc>lat.=55.978256, lon.=26.550093, Alt.=88.266663m. Speed=8.280000m/h.</desc>
<speed>2.300000</speed>
</trkpt>
<trkpt lat="55.978603" lon="26.549877">
<ele>108.6</ele>
<time>2010-06-20T08:30:56Z</time>
<desc>lat.=55.978603, lon.=26.549877, Alt.=87.151428m. Speed=12.672000m/h.</desc>
<speed>3.520000</speed>
</trkpt>
<trkpt lat="55.979183" lon="26.550312">
<ele>100.3</ele>
<time>2010-06-20T08:31:18Z</time>
<desc>lat.=55.979183, lon.=26.550312, Alt.=84.471741m. Speed=0.072000m/h.</desc>
<speed>0.020000</speed>
</trkpt>
<trkpt lat="55.979610" lon="26.551386">
<ele>98.6</ele>
<time>2010-06-20T08:32:01Z</time>
<desc>lat.=55.979610, lon.=26.551386, Alt.=83.893616m. Speed=8.964000m/h.</desc>
<speed>2.490000</speed>
</trkpt>
<trkpt lat="55.979870" lon="26.553492">
<ele>103.9</ele>
<time>2010-06-20T08:33:28Z</time>
<desc>lat.=55.979870, lon.=26.553492, Alt.=71.614319m. Speed=3.348000m/h.</desc>
<speed>0.930000</speed>
</trkpt>
<trkpt lat="55.983845" lon="26.556915">
<ele>103.7</ele>
<time>2010-06-20T08:36:41Z</time>
<desc>lat.=55.983845, lon.=26.556915, Alt.=95.014709m. Speed=10.764000m/h.</desc>
<speed>2.990000</speed>
</trkpt>
<trkpt lat="55.984852" lon="26.558138">
<ele>111.8</ele>
<time>2010-06-20T08:37:27Z</time>
<desc>lat.=55.984852, lon.=26.558138, Alt.=91.868225m. Speed=11.448000m/h.</desc>
<speed>3.180000</speed>
</trkpt>
<trkpt lat="55.986069" lon="26.559162">
<ele>106.3</ele>
<time>2010-06-20T08:38:09Z</time>
<desc>lat.=55.986069, lon.=26.559162, Alt.=91.686584m. Speed=9.900000m/h.</desc>
<speed>2.750000</speed>
</trkpt>
<trkpt lat="55.987053" lon="26.560490">
<ele>112.0</ele>
<time>2010-06-20T08:38:56Z</time>
<desc>lat.=55.987053, lon.=26.560490, Alt.=90.987366m. Speed=7.956000m/h.</desc>
<speed>2.210000</speed>
</trkpt>
<trkpt lat="55.989677" lon="26.561014">
<ele>102.7</ele>
<time>2010-06-20T08:40:08Z</time>
<desc>lat.=55.989677, lon.=26.561014, Alt.=88.323303m. Speed=12.672000m/h.</desc>
<speed>3.520000</speed>
</trkpt>
<trkpt lat="55.990921" lon="26.564323">
<ele>105.1</ele>
<time>2010-06-20T08:41:23Z</time>
<desc>lat.=55.990921, lon.=26.564323, Alt.=69.268616m. Speed=7.704000m/h.</desc>
<speed>2.140000</speed>
</trkpt>
<trkpt lat="55.991467" lon="26.564577">
<ele>101.5</ele>
<time>2010-06-20T08:41:43Z</time>
<desc>lat.=55.991467, lon.=26.564577, Alt.=77.483459m. Speed=6.696000m/h.</desc>
<speed>1.860000</speed>
</trkpt>
<trkpt lat="55.991959" lon="26.564421">
<ele>104.1</ele>
<time>2010-06-20T08:42:01Z</time>
<desc>lat.=55.991959, lon.=26.564421, Alt.=72.993225m. Speed=9.252000m/h.</desc>
<speed>2.570000</speed>
</trkpt>
<trkpt lat="55.992378" lon="26.563938">
<ele>104.6</ele>
<time>2010-06-20T08:42:19Z</time>
<desc>lat.=55.992378, lon.=26.563938, Alt.=83.409241m. Speed=7.488000m/h.</desc>
<speed>2.080000</speed>
</trkpt>
<trkpt lat="55.992622" lon="26.563107">
<ele>112.2</ele>
<time>2010-06-20T08:42:41Z</time>
<desc>lat.=55.992622, lon.=26.563107, Alt.=90.661194m. Speed=7.812000m/h.</desc>
<speed>2.170000</speed>
</trkpt>
<trkpt lat="55.993053" lon="26.560915">
<ele>104.2</ele>
<time>2010-06-20T08:43:26Z</time>
<desc>lat.=55.993053, lon.=26.560915, Alt.=108.321350m. Speed=5.580000m/h.</desc>
<speed>1.550000</speed>
</trkpt>
<trkpt lat="55.993126" lon="26.559113">
<ele>103.9</ele>
<time>2010-06-20T08:44:06Z</time>
<desc>lat.=55.993126, lon.=26.559113, Alt.=98.206116m. Speed=8.028000m/h.</desc>
<speed>2.230000</speed>
</trkpt>
<trkpt lat="55.993500" lon="26.557037">
<ele>111.1</ele>
<time>2010-06-20T08:44:53Z</time>
<desc>lat.=55.993500, lon.=26.557037, Alt.=106.946350m. Speed=12.888000m/h.</desc>
<speed>3.580000</speed>
</trkpt>
<trkpt lat="55.993412" lon="26.555620">
<ele>113.2</ele>
<time>2010-06-20T08:45:15Z</time>
<desc>lat.=55.993412, lon.=26.555620, Alt.=100.284241m. Speed=9.864000m/h.</desc>
<speed>2.740000</speed>
</trkpt>
<trkpt lat="55.993877" lon="26.552698">
<ele>113.9</ele>
<time>2010-06-20T08:46:25Z</time>
<desc>lat.=55.993877, lon.=26.552698, Alt.=92.161194m. Speed=1.764000m/h.</desc>
<speed>0.490000</speed>
</trkpt>
<trkpt lat="55.993805" lon="26.551249">
<ele>117.7</ele>
<time>2010-06-20T08:46:59Z</time>
<desc>lat.=55.993805, lon.=26.551249, Alt.=96.792053m. Speed=7.344000m/h.</desc>
<speed>2.040000</speed>
</trkpt>
<trkpt lat="55.994488" lon="26.544691">
<ele>110.8</ele>
<time>2010-06-20T08:49:12Z</time>
<desc>lat.=55.994488, lon.=26.544691, Alt.=100.971741m. Speed=10.548000m/h.</desc>
<speed>2.930000</speed>
</trkpt>
<trkpt lat="55.994366" lon="26.540964">
<ele>106.1</ele>
<time>2010-06-20T08:50:09Z</time>
<desc>lat.=55.994366, lon.=26.540964, Alt.=87.792053m. Speed=10.260000m/h.</desc>
<speed>2.850000</speed>
</trkpt>
<trkpt lat="55.994457" lon="26.538614">
<ele>99.7</ele>
<time>2010-06-20T08:50:49Z</time>
<desc>lat.=55.994457, lon.=26.538614, Alt.=99.692444m. Speed=15.300000m/h.</desc>
<speed>4.250000</speed>
</trkpt>
<trkpt lat="55.995052" lon="26.533325">
<ele>101.5</ele>
<time>2010-06-20T08:51:51Z</time>
<desc>lat.=55.995052, lon.=26.533325, Alt.=98.079163m. Speed=17.316000m/h.</desc>
<speed>4.810000</speed>
</trkpt>
<trkpt lat="55.995331" lon="26.532042">
<ele>105.8</ele>
<time>2010-06-20T08:52:09Z</time>
<desc>lat.=55.995331, lon.=26.532042, Alt.=103.506897m. Speed=15.120000m/h.</desc>
<speed>4.200000</speed>
</trkpt>
<trkpt lat="55.995632" lon="26.529356">
<ele>104.2</ele>
<time>2010-06-20T08:52:56Z</time>
<desc>lat.=55.995632, lon.=26.529356, Alt.=97.657288m. Speed=10.440000m/h.</desc>
<speed>2.900000</speed>
</trkpt>
<trkpt lat="55.995586" lon="26.528549">
<ele>106.9</ele>
<time>2010-06-20T08:54:03Z</time>
<desc>lat.=55.995586, lon.=26.528549, Alt.=103.145569m. Speed=0.684000m/h.</desc>
<speed>0.190000</speed>
</trkpt>
<trkpt lat="55.991940" lon="26.526512">
<ele>106.4</ele>
<time>2010-06-20T08:56:41Z</time>
<desc>lat.=55.991940, lon.=26.526512, Alt.=107.077209m. Speed=11.160000m/h.</desc>
<speed>3.100000</speed>
</trkpt>
<trkpt lat="55.991112" lon="26.525331">
<ele>110.4</ele>
<time>2010-06-20T08:57:20Z</time>
<desc>lat.=55.991112, lon.=26.525331, Alt.=121.221741m. Speed=11.088000m/h.</desc>
<speed>3.080000</speed>
</trkpt>
<trkpt lat="55.989216" lon="26.523838">
<ele>105.0</ele>
<time>2010-06-20T08:58:21Z</time>
<desc>lat.=55.989216, lon.=26.523838, Alt.=105.821350m. Speed=10.980000m/h.</desc>
<speed>3.050000</speed>
</trkpt>
<trkpt lat="55.987507" lon="26.523508">
<ele>96.4</ele>
<time>2010-06-20T08:59:13Z</time>
<desc>lat.=55.987507, lon.=26.523508, Alt.=102.280334m. Speed=9.612000m/h.</desc>
<speed>2.670000</speed>
</trkpt>
<trkpt lat="55.985352" lon="26.524628">
<ele>95.9</ele>
<time>2010-06-20T09:00:22Z</time>
<desc>lat.=55.985352, lon.=26.524628, Alt.=89.588928m. Speed=5.400000m/h.</desc>
<speed>1.500000</speed>
</trkpt>
<trkpt lat="55.984993" lon="26.523476">
<ele>97.0</ele>
<time>2010-06-20T09:00:48Z</time>
<desc>lat.=55.984993, lon.=26.523476, Alt.=87.506897m. Speed=6.660000m/h.</desc>
<speed>1.850000</speed>
</trkpt>
<trkpt lat="55.985050" lon="26.522842">
<ele>97.7</ele>
<time>2010-06-20T09:01:01Z</time>
<desc>lat.=55.985050, lon.=26.522842, Alt.=88.581116m. Speed=5.400000m/h.</desc>
<speed>1.500000</speed>
</trkpt>
<trkpt lat="55.985477" lon="26.520967">
<ele>95.6</ele>
<time>2010-06-20T09:01:31Z</time>
<desc>lat.=55.985477, lon.=26.520967, Alt.=71.610413m. Speed=7.560000m/h.</desc>
<speed>2.100000</speed>
</trkpt>
<trkpt lat="55.986938" lon="26.517010">
<ele>108.2</ele>
<time>2010-06-20T09:03:33Z</time>
<desc>lat.=55.986938, lon.=26.517010, Alt.=91.430725m. Speed=4.212000m/h.</desc>
<speed>1.170000</speed>
</trkpt>
<trkpt lat="55.987156" lon="26.513910">
<ele>109.0</ele>
<time>2010-06-20T09:05:03Z</time>
<desc>lat.=55.987156, lon.=26.513910, Alt.=102.002991m. Speed=7.128000m/h.</desc>
<speed>1.980000</speed>
</trkpt>
<trkpt lat="55.986992" lon="26.511957">
<ele>106.1</ele>
<time>2010-06-20T09:05:38Z</time>
<desc>lat.=55.986992, lon.=26.511957, Alt.=91.110413m. Speed=12.348000m/h.</desc>
<speed>3.430000</speed>
</trkpt>
<trkpt lat="55.986435" lon="26.510740">
<ele>108.3</ele>
<time>2010-06-20T09:06:12Z</time>
<desc>lat.=55.986435, lon.=26.510740, Alt.=92.626038m. Speed=6.444000m/h.</desc>
<speed>1.790000</speed>
</trkpt>
<trkpt lat="55.984379" lon="26.507828">
<ele>108.3</ele>
<time>2010-06-20T09:07:41Z</time>
<desc>lat.=55.984379, lon.=26.507828, Alt.=96.692444m. Speed=8.244000m/h.</desc>
<speed>2.290000</speed>
</trkpt>
<trkpt lat="55.983109" lon="26.508371">
<ele>98.2</ele>
<time>2010-06-20T09:08:31Z</time>
<desc>lat.=55.983109, lon.=26.508371, Alt.=88.717834m. Speed=1.476000m/h.</desc>
<speed>0.410000</speed>
</trkpt>
<trkpt lat="55.982796" lon="26.510084">
<ele>100.6</ele>
<time>2010-06-20T09:09:16Z</time>
<desc>lat.=55.982796, lon.=26.510084, Alt.=86.678772m. Speed=8.568000m/h.</desc>
<speed>2.380000</speed>
</trkpt>
<trkpt lat="55.982819" lon="26.510971">
<ele>101.7</ele>
<time>2010-06-20T09:09:44Z</time>
<desc>lat.=55.982819, lon.=26.510971, Alt.=94.055725m. Speed=1.512000m/h.</desc>
<speed>0.420000</speed>
</trkpt>
<trkpt lat="55.982590" lon="26.511362">
<ele>112.6</ele>
<time>2010-06-20T09:09:58Z</time>
<desc>lat.=55.982590, lon.=26.511362, Alt.=95.866272m. Speed=8.964000m/h.</desc>
<speed>2.490000</speed>
</trkpt>
<trkpt lat="55.982933" lon="26.511957">
<ele>101.8</ele>
<time>2010-06-20T09:10:20Z</time>
<desc>lat.=55.982933, lon.=26.511957, Alt.=96.229553m. Speed=7.452000m/h.</desc>
<speed>2.070000</speed>
</trkpt>
<trkpt lat="55.983093" lon="26.511816">
<ele>99.0</ele>
<time>2010-06-20T09:10:30Z</time>
<desc>lat.=55.983093, lon.=26.511816, Alt.=95.223694m. Speed=7.632000m/h.</desc>
<speed>2.120000</speed>
</trkpt>
<trkpt lat="55.982903" lon="26.510853">
<ele>98.0</ele>
<time>2010-06-20T09:10:55Z</time>
<desc>lat.=55.982903, lon.=26.510853, Alt.=89.778381m. Speed=11.232000m/h.</desc>
<speed>3.120000</speed>
</trkpt>
<trkpt lat="55.983067" lon="26.509285">
<ele>99.8</ele>
<time>2010-06-20T09:11:19Z</time>
<desc>lat.=55.983067, lon.=26.509285, Alt.=81.184631m. Speed=13.068000m/h.</desc>
<speed>3.630000</speed>
</trkpt>
<trkpt lat="55.983013" lon="26.508400">
<ele>97.6</ele>
<time>2010-06-20T09:11:33Z</time>
<desc>lat.=55.983013, lon.=26.508400, Alt.=82.506897m. Speed=8.640000m/h.</desc>
<speed>2.400000</speed>
</trkpt>
<trkpt lat="55.978439" lon="26.508171">
<ele>97.0</ele>
<time>2010-06-20T09:14:34Z</time>
<desc>lat.=55.978439, lon.=26.508171, Alt.=83.518616m. Speed=0.612000m/h.</desc>
<speed>0.170000</speed>
</trkpt>
<trkpt lat="55.982101" lon="26.508436">
<ele>96.7</ele>
<time>2010-06-20T09:16:38Z</time>
<desc>lat.=55.982101, lon.=26.508436, Alt.=94.700256m. Speed=15.192000m/h.</desc>
<speed>4.220000</speed>
</trkpt>
<trkpt lat="55.983627" lon="26.508034">
<ele>102.7</ele>
<time>2010-06-20T09:17:23Z</time>
<desc>lat.=55.983627, lon.=26.508034, Alt.=87.213928m. Speed=8.100000m/h.</desc>
<speed>2.250000</speed>
</trkpt>
<trkpt lat="55.984089" lon="26.506956">
<ele>109.7</ele>
<time>2010-06-20T09:18:06Z</time>
<desc>lat.=55.984089, lon.=26.506956, Alt.=91.153381m. Speed=6.300000m/h.</desc>
<speed>1.750000</speed>
</trkpt>
<trkpt lat="55.985050" lon="26.505915">
<ele>121.0</ele>
<time>2010-06-20T09:18:35Z</time>
<desc>lat.=55.985050, lon.=26.505915, Alt.=90.581116m. Speed=9.108000m/h.</desc>
<speed>2.530000</speed>
</trkpt>
<trkpt lat="55.986542" lon="26.503372">
<ele>105.6</ele>
<time>2010-06-20T09:19:27Z</time>
<desc>lat.=55.986542, lon.=26.503372, Alt.=88.381897m. Speed=15.444000m/h.</desc>
<speed>4.290000</speed>
</trkpt>
<trkpt lat="55.987541" lon="26.504009">
<ele>99.3</ele>
<time>2010-06-20T09:19:57Z</time>
<desc>lat.=55.987541, lon.=26.504009, Alt.=94.831116m. Speed=12.636000m/h.</desc>
<speed>3.510000</speed>
</trkpt>
<trkpt lat="55.989101" lon="26.503780">
<ele>102.9</ele>
<time>2010-06-20T09:20:45Z</time>
<desc>lat.=55.989101, lon.=26.503780, Alt.=96.358459m. Speed=13.824000m/h.</desc>
<speed>3.840000</speed>
</trkpt>
<trkpt lat="55.990383" lon="26.501497">
<ele>105.3</ele>
<time>2010-06-20T09:21:36Z</time>
<desc>lat.=55.990383, lon.=26.501497, Alt.=100.325256m. Speed=14.544000m/h.</desc>
<speed>4.040000</speed>
</trkpt>
<trkpt lat="55.990555" lon="26.500492">
<ele>106.9</ele>
<time>2010-06-20T09:27:37Z</time>
<desc>lat.=55.990555, lon.=26.500492, Alt.=98.243225m. Speed=6.048000m/h.</desc>
<speed>1.680000</speed>
</trkpt>
<trkpt lat="55.991001" lon="26.496033">
<ele>107.1</ele>
<time>2010-06-20T09:29:13Z</time>
<desc>lat.=55.991001, lon.=26.496033, Alt.=97.280334m. Speed=13.608000m/h.</desc>
<speed>3.780000</speed>
</trkpt>
<trkpt lat="55.990929" lon="26.494871">
<ele>106.1</ele>
<time>2010-06-20T09:29:33Z</time>
<desc>lat.=55.990929, lon.=26.494871, Alt.=95.399475m. Speed=15.876000m/h.</desc>
<speed>4.410000</speed>
</trkpt>
<trkpt lat="55.987957" lon="26.480391">
<ele>97.4</ele>
<time>2010-06-20T09:32:45Z</time>
<desc>lat.=55.987957, lon.=26.480391, Alt.=89.196350m. Speed=17.784000m/h.</desc>
<speed>4.940000</speed>
</trkpt>
<trkpt lat="55.984451" lon="26.471727">
<ele>98.7</ele>
<time>2010-06-20T09:35:25Z</time>
<desc>lat.=55.984451, lon.=26.471727, Alt.=99.430725m. Speed=16.271999m/h.</desc>
<speed>4.520000</speed>
</trkpt>
<trkpt lat="55.984165" lon="26.470587">
<ele>97.2</ele>
<time>2010-06-20T09:35:42Z</time>
<desc>lat.=55.984165, lon.=26.470587, Alt.=93.020569m. Speed=13.572000m/h.</desc>
<speed>3.770000</speed>
</trkpt>
<trkpt lat="55.983955" lon="26.467176">
<ele>95.1</ele>
<time>2010-06-20T09:36:44Z</time>
<desc>lat.=55.983955, lon.=26.467176, Alt.=88.616272m. Speed=11.736000m/h.</desc>
<speed>3.260000</speed>
</trkpt>
<trkpt lat="55.984104" lon="26.459120">
<ele>100.3</ele>
<time>2010-06-20T09:38:59Z</time>
<desc>lat.=55.984104, lon.=26.459120, Alt.=94.698303m. Speed=8.028000m/h.</desc>
<speed>2.230000</speed>
</trkpt>
<trkpt lat="55.984207" lon="26.458767">
<ele>102.0</ele>
<time>2010-06-20T09:39:07Z</time>
<desc>lat.=55.984207, lon.=26.458767, Alt.=93.356506m. Speed=8.568000m/h.</desc>
<speed>2.380000</speed>
</trkpt>
<trkpt lat="55.984631" lon="26.458591">
<ele>102.0</ele>
<time>2010-06-20T09:39:24Z</time>
<desc>lat.=55.984631, lon.=26.458591, Alt.=86.544006m. Speed=10.764000m/h.</desc>
<speed>2.990000</speed>
</trkpt>
<trkpt lat="55.986908" lon="26.458729">
<ele>102.1</ele>
<time>2010-06-20T09:40:36Z</time>
<desc>lat.=55.986908, lon.=26.458729, Alt.=96.686584m. Speed=17.316000m/h.</desc>
<speed>4.810000</speed>
</trkpt>
<trkpt lat="55.990845" lon="26.460695">
<ele>101.5</ele>
<time>2010-06-20T09:42:22Z</time>
<desc>lat.=55.990845, lon.=26.460695, Alt.=92.952209m. Speed=14.184000m/h.</desc>
<speed>3.940000</speed>
</trkpt>
<trkpt lat="55.993347" lon="26.462240">
<ele>103.8</ele>
<time>2010-06-20T09:43:51Z</time>
<desc>lat.=55.993347, lon.=26.462240, Alt.=94.352600m. Speed=12.240000m/h.</desc>
<speed>3.400000</speed>
</trkpt>
<trkpt lat="55.998104" lon="26.462694">
<ele>104.8</ele>
<time>2010-06-20T09:46:10Z</time>
<desc>lat.=55.998104, lon.=26.462694, Alt.=100.323303m. Speed=16.236000m/h.</desc>
<speed>4.510000</speed>
</trkpt>
<trkpt lat="56.003574" lon="26.461058">
<ele>107.3</ele>
<time>2010-06-20T09:48:51Z</time>
<desc>lat.=56.003574, lon.=26.461058, Alt.=104.727600m. Speed=13.392000m/h.</desc>
<speed>3.720000</speed>
</trkpt>
<trkpt lat="56.009705" lon="26.461229">
<ele>108.9</ele>
<time>2010-06-20T09:58:40Z</time>
<desc>lat.=56.009705, lon.=26.461229, Alt.=103.202209m. Speed=24.444000m/h.</desc>
<speed>6.790000</speed>
</trkpt>
<trkpt lat="56.011803" lon="26.460943">
<ele>101.7</ele>
<time>2010-06-20T09:59:10Z</time>
<desc>lat.=56.011803, lon.=26.460943, Alt.=95.637756m. Speed=31.860001m/h.</desc>
<speed>8.850000</speed>
</trkpt>
<trkpt lat="56.012981" lon="26.460342">
<ele>103.5</ele>
<time>2010-06-20T09:59:27Z</time>
<desc>lat.=56.012981, lon.=26.460342, Alt.=95.686584m. Speed=26.351999m/h.</desc>
<speed>7.320000</speed>
</trkpt>
<trkpt lat="56.014286" lon="26.458742">
<ele>101.1</ele>
<time>2010-06-20T09:59:51Z</time>
<desc>lat.=56.014286, lon.=26.458742, Alt.=95.571350m. Speed=24.156000m/h.</desc>
<speed>6.710000</speed>
</trkpt>
<trkpt lat="56.016815" lon="26.456652">
<ele>104.2</ele>
<time>2010-06-20T10:00:44Z</time>
<desc>lat.=56.016815, lon.=26.456652, Alt.=97.143616m. Speed=22.247999m/h.</desc>
<speed>6.180000</speed>
</trkpt>
<trkpt lat="56.021336" lon="26.456842">
<ele>104.5</ele>
<time>2010-06-20T10:02:09Z</time>
<desc>lat.=56.021336, lon.=26.456842, Alt.=99.489319m. Speed=18.143999m/h.</desc>
<speed>5.040000</speed>
</trkpt>
<trkpt lat="56.023106" lon="26.457773">
<ele>107.8</ele>
<time>2010-06-20T10:02:45Z</time>
<desc>lat.=56.023106, lon.=26.457773, Alt.=94.905334m. Speed=24.768000m/h.</desc>
<speed>6.880000</speed>
</trkpt>
<trkpt lat="56.028343" lon="26.461996">
<ele>109.5</ele>
<time>2010-06-20T10:05:14Z</time>
<desc>lat.=56.028343, lon.=26.461996, Alt.=99.891663m. Speed=8.676000m/h.</desc>
<speed>2.410000</speed>
</trkpt>
<trkpt lat="56.028084" lon="26.462423">
<ele>113.6</ele>
<time>2010-06-20T10:05:53Z</time>
<desc>lat.=56.028084, lon.=26.462423, Alt.=98.987366m. Speed=0.144000m/h.</desc>
<speed>0.040000</speed>
</trkpt>
<trkpt lat="56.028221" lon="26.462570">
<ele>109.9</ele>
<time>2010-06-20T10:08:12Z</time>
<desc>lat.=56.028221, lon.=26.462570, Alt.=99.653381m. Speed=5.832000m/h.</desc>
<speed>1.620000</speed>
</trkpt>
<trkpt lat="56.028084" lon="26.462732">
<ele>111.7</ele>
<time>2010-06-20T10:08:53Z</time>
<desc>lat.=56.028084, lon.=26.462732, Alt.=99.469788m. Speed=0.108000m/h.</desc>
<speed>0.030000</speed>
</trkpt>
<trkpt lat="56.028034" lon="26.463430">
<ele>114.9</ele>
<time>2010-06-20T10:09:32Z</time>
<desc>lat.=56.028034, lon.=26.463430, Alt.=101.756897m. Speed=4.644000m/h.</desc>
<speed>1.290000</speed>
</trkpt>
<trkpt lat="56.027714" lon="26.463507">
<ele>124.2</ele>
<time>2010-06-20T10:09:48Z</time>
<desc>lat.=56.027714, lon.=26.463507, Alt.=104.069397m. Speed=5.292000m/h.</desc>
<speed>1.470000</speed>
</trkpt>
<trkpt lat="56.027618" lon="26.463760">
<ele>127.6</ele>
<time>2010-06-20T10:09:54Z</time>
<desc>lat.=56.027618, lon.=26.463760, Alt.=104.155334m. Speed=16.488001m/h.</desc>
<speed>4.580000</speed>
</trkpt>
<trkpt lat="56.026512" lon="26.468445">
<ele>100.5</ele>
<time>2010-06-20T10:11:13Z</time>
<desc>lat.=56.026512, lon.=26.468445, Alt.=77.735413m. Speed=0.612000m/h.</desc>
<speed>0.170000</speed>
</trkpt>
<trkpt lat="56.027355" lon="26.464287">
<ele>122.3</ele>
<time>2010-06-20T10:13:15Z</time>
<desc>lat.=56.027355, lon.=26.464287, Alt.=76.835022m. Speed=7.380000m/h.</desc>
<speed>2.050000</speed>
</trkpt>
<trkpt lat="56.027744" lon="26.464100">
<ele>121.5</ele>
<time>2010-06-20T10:13:29Z</time>
<desc>lat.=56.027744, lon.=26.464100, Alt.=83.922913m. Speed=7.452000m/h.</desc>
<speed>2.070000</speed>
</trkpt>
<trkpt lat="56.027718" lon="26.464273">
<ele>118.4</ele>
<time>2010-06-20T10:13:37Z</time>
<desc>lat.=56.027718, lon.=26.464273, Alt.=89.706116m. Speed=4.824000m/h.</desc>
<speed>1.340000</speed>
</trkpt>
<trkpt lat="56.027695" lon="26.463806">
<ele>125.8</ele>
<time>2010-06-20T10:13:55Z</time>
<desc>lat.=56.027695, lon.=26.463806, Alt.=96.229553m. Speed=5.436000m/h.</desc>
<speed>1.510000</speed>
</trkpt>
<trkpt lat="56.027534" lon="26.463652">
<ele>127.9</ele>
<time>2010-06-20T10:14:04Z</time>
<desc>lat.=56.027534, lon.=26.463652, Alt.=98.588928m. Speed=7.344000m/h.</desc>
<speed>2.040000</speed>
</trkpt>
<trkpt lat="56.026630" lon="26.464190">
<ele>105.6</ele>
<time>2010-06-20T10:14:31Z</time>
<desc>lat.=56.026630, lon.=26.464190, Alt.=90.106506m. Speed=1.116000m/h.</desc>
<speed>0.310000</speed>
</trkpt>
<trkpt lat="56.026455" lon="26.463987">
<ele>101.6</ele>
<time>2010-06-20T10:14:52Z</time>
<desc>lat.=56.026455, lon.=26.463987, Alt.=93.169006m. Speed=1.476000m/h.</desc>
<speed>0.410000</speed>
</trkpt>
<trkpt lat="56.026264" lon="26.464493">
<ele>108.6</ele>
<time>2010-06-20T10:15:26Z</time>
<desc>lat.=56.026264, lon.=26.464493, Alt.=109.581116m. Speed=0.252000m/h.</desc>
<speed>0.070000</speed>
</trkpt>
<trkpt lat="56.026482" lon="26.464741">
<ele>113.9</ele>
<time>2010-06-20T10:20:53Z</time>
<desc>lat.=56.026482, lon.=26.464741, Alt.=143.670044m. Speed=0.144000m/h.</desc>
<speed>0.040000</speed>
</trkpt>
<trkpt lat="56.025063" lon="26.463266">
<ele>112.8</ele>
<time>2010-06-20T10:23:12Z</time>
<desc>lat.=56.025063, lon.=26.463266, Alt.=101.563538m. Speed=0.828000m/h.</desc>
<speed>0.230000</speed>
</trkpt>
<trkpt lat="56.024601" lon="26.463724">
<ele>102.6</ele>
<time>2010-06-20T10:24:02Z</time>
<desc>lat.=56.024601, lon.=26.463724, Alt.=97.729553m. Speed=3.564000m/h.</desc>
<speed>0.990000</speed>
</trkpt>
<trkpt lat="56.025738" lon="26.461878">
<ele>114.6</ele>
<time>2010-06-20T10:25:01Z</time>
<desc>lat.=56.025738, lon.=26.461878, Alt.=101.038147m. Speed=9.288000m/h.</desc>
<speed>2.580000</speed>
</trkpt>
<trkpt lat="56.027584" lon="26.463446">
<ele>127.1</ele>
<time>2010-06-20T10:26:19Z</time>
<desc>lat.=56.027584, lon.=26.463446, Alt.=116.401428m. Speed=6.336000m/h.</desc>
<speed>1.760000</speed>
</trkpt>
<trkpt lat="56.027935" lon="26.463354">
<ele>117.2</ele>
<time>2010-06-20T10:26:32Z</time>
<desc>lat.=56.027935, lon.=26.463354, Alt.=111.540100m. Speed=12.564000m/h.</desc>
<speed>3.490000</speed>
</trkpt>
<trkpt lat="56.028366" lon="26.462246">
<ele>108.8</ele>
<time>2010-06-20T10:26:53Z</time>
<desc>lat.=56.028366, lon.=26.462246, Alt.=100.801819m. Speed=11.484000m/h.</desc>
<speed>3.190000</speed>
</trkpt>
<trkpt lat="56.028595" lon="26.462271">
<ele>108.4</ele>
<time>2010-06-20T10:27:00Z</time>
<desc>lat.=56.028595, lon.=26.462271, Alt.=103.817444m. Speed=10.764000m/h.</desc>
<speed>2.990000</speed>
</trkpt>
<trkpt lat="56.031998" lon="26.464777">
<ele>108.0</ele>
<time>2010-06-20T10:33:05Z</time>
<desc>lat.=56.031998, lon.=26.464777, Alt.=96.669006m. Speed=0.576000m/h.</desc>
<speed>0.160000</speed>
</trkpt>
<trkpt lat="56.032120" lon="26.464228">
<ele>107.1</ele>
<time>2010-06-20T10:33:23Z</time>
<desc>lat.=56.032120, lon.=26.464228, Alt.=102.692444m. Speed=8.028000m/h.</desc>
<speed>2.230000</speed>
</trkpt>
<trkpt lat="56.032818" lon="26.464340">
<ele>104.4</ele>
<time>2010-06-20T10:33:40Z</time>
<desc>lat.=56.032818, lon.=26.464340, Alt.=102.688538m. Speed=16.632000m/h.</desc>
<speed>4.620000</speed>
</trkpt>
<trkpt lat="56.033333" lon="26.464117">
<ele>104.8</ele>
<time>2010-06-20T10:33:54Z</time>
<desc>lat.=56.033333, lon.=26.464117, Alt.=100.805725m. Speed=14.364000m/h.</desc>
<speed>3.990000</speed>
</trkpt>
<trkpt lat="56.037231" lon="26.460636">
<ele>108.1</ele>
<time>2010-06-20T10:35:56Z</time>
<desc>lat.=56.037231, lon.=26.460636, Alt.=109.049866m. Speed=16.884001m/h.</desc>
<speed>4.690000</speed>
</trkpt>
<trkpt lat="56.040131" lon="26.458525">
<ele>105.8</ele>
<time>2010-06-20T10:37:35Z</time>
<desc>lat.=56.040131, lon.=26.458525, Alt.=111.301819m. Speed=14.220000m/h.</desc>
<speed>3.950000</speed>
</trkpt>
<trkpt lat="56.041561" lon="26.458698">
<ele>107.6</ele>
<time>2010-06-20T10:38:11Z</time>
<desc>lat.=56.041561, lon.=26.458698, Alt.=112.495178m. Speed=17.028000m/h.</desc>
<speed>4.730000</speed>
</trkpt>
<trkpt lat="56.044231" lon="26.459970">
<ele>107.3</ele>
<time>2010-06-20T10:39:19Z</time>
<desc>lat.=56.044231, lon.=26.459970, Alt.=106.817444m. Speed=12.384000m/h.</desc>
<speed>3.440000</speed>
</trkpt>
<trkpt lat="56.048473" lon="26.455576">
<ele>112.6</ele>
<time>2010-06-20T10:41:51Z</time>
<desc>lat.=56.048473, lon.=26.455576, Alt.=109.817444m. Speed=12.816000m/h.</desc>
<speed>3.560000</speed>
</trkpt>
<trkpt lat="56.051315" lon="26.454571">
<ele>110.8</ele>
<time>2010-06-20T10:43:11Z</time>
<desc>lat.=56.051315, lon.=26.454571, Alt.=100.934631m. Speed=14.364000m/h.</desc>
<speed>3.990000</speed>
</trkpt>
<trkpt lat="56.064972" lon="26.462540">
<ele>113.0</ele>
<time>2010-06-20T10:49:45Z</time>
<desc>lat.=56.064972, lon.=26.462540, Alt.=115.690491m. Speed=13.140000m/h.</desc>
<speed>3.650000</speed>
</trkpt>
<trkpt lat="56.066696" lon="26.463295">
<ele>115.6</ele>
<time>2010-06-20T10:50:33Z</time>
<desc>lat.=56.066696, lon.=26.463295, Alt.=123.774475m. Speed=12.528000m/h.</desc>
<speed>3.480000</speed>
</trkpt>
<trkpt lat="56.067257" lon="26.463781">
<ele>117.3</ele>
<time>2010-06-20T10:50:48Z</time>
<desc>lat.=56.067257, lon.=26.463781, Alt.=116.161194m. Speed=12.060000m/h.</desc>
<speed>3.350000</speed>
</trkpt>
<trkpt lat="56.067429" lon="26.464197">
<ele>118.2</ele>
<time>2010-06-20T10:50:55Z</time>
<desc>lat.=56.067429, lon.=26.464197, Alt.=113.460022m. Speed=14.364000m/h.</desc>
<speed>3.990000</speed>
</trkpt>
<trkpt lat="56.067581" lon="26.466963">
<ele>108.6</ele>
<time>2010-06-20T10:51:36Z</time>
<desc>lat.=56.067581, lon.=26.466963, Alt.=111.872131m. Speed=15.480000m/h.</desc>
<speed>4.300000</speed>
</trkpt>
<trkpt lat="56.068542" lon="26.470499">
<ele>107.8</ele>
<time>2010-06-20T10:52:42Z</time>
<desc>lat.=56.068542, lon.=26.470499, Alt.=110.678772m. Speed=10.548000m/h.</desc>
<speed>2.930000</speed>
</trkpt>
<trkpt lat="56.068474" lon="26.471037">
<ele>107.8</ele>
<time>2010-06-20T10:52:56Z</time>
<desc>lat.=56.068474, lon.=26.471037, Alt.=115.100647m. Speed=9.324000m/h.</desc>
<speed>2.590000</speed>
</trkpt>
<trkpt lat="56.064972" lon="26.475121">
<ele>109.9</ele>
<time>2010-06-20T10:54:52Z</time>
<desc>lat.=56.064972, lon.=26.475121, Alt.=110.454163m. Speed=12.204000m/h.</desc>
<speed>3.390000</speed>
</trkpt>
<trkpt lat="56.062370" lon="26.479343">
<ele>108.7</ele>
<time>2010-06-20T10:56:25Z</time>
<desc>lat.=56.062370, lon.=26.479343, Alt.=122.266663m. Speed=16.056000m/h.</desc>
<speed>4.460000</speed>
</trkpt>
<trkpt lat="56.060993" lon="26.481142">
<ele>110.1</ele>
<time>2010-06-20T10:57:07Z</time>
<desc>lat.=56.060993, lon.=26.481142, Alt.=117.766663m. Speed=11.304000m/h.</desc>
<speed>3.140000</speed>
</trkpt>
<trkpt lat="56.060383" lon="26.481596">
<ele>113.4</ele>
<time>2010-06-20T10:57:32Z</time>
<desc>lat.=56.060383, lon.=26.481596, Alt.=113.163147m. Speed=0.720000m/h.</desc>
<speed>0.200000</speed>
</trkpt>
<trkpt lat="56.058712" lon="26.482077">
<ele>110.4</ele>
<time>2010-06-20T11:02:03Z</time>
<desc>lat.=56.058712, lon.=26.482077, Alt.=90.659241m. Speed=7.056000m/h.</desc>
<speed>1.960000</speed>
</trkpt>
<trkpt lat="56.058071" lon="26.482853">
<ele>111.1</ele>
<time>2010-06-20T11:02:29Z</time>
<desc>lat.=56.058071, lon.=26.482853, Alt.=101.331116m. Speed=11.664000m/h.</desc>
<speed>3.240000</speed>
</trkpt>
<trkpt lat="56.057751" lon="26.482658">
<ele>111.0</ele>
<time>2010-06-20T11:02:58Z</time>
<desc>lat.=56.057751, lon.=26.482658, Alt.=101.616272m. Speed=0.252000m/h.</desc>
<speed>0.070000</speed>
</trkpt>
<trkpt lat="56.058460" lon="26.484652">
<ele>110.1</ele>
<time>2010-06-20T11:03:48Z</time>
<desc>lat.=56.058460, lon.=26.484652, Alt.=111.338928m. Speed=13.572000m/h.</desc>
<speed>3.770000</speed>
</trkpt>
<trkpt lat="56.059345" lon="26.489973">
<ele>108.3</ele>
<time>2010-06-20T11:05:31Z</time>
<desc>lat.=56.059345, lon.=26.489973, Alt.=111.542053m. Speed=14.796000m/h.</desc>
<speed>4.110000</speed>
</trkpt>
<trkpt lat="56.060188" lon="26.491358">
<ele>106.7</ele>
<time>2010-06-20T11:06:04Z</time>
<desc>lat.=56.060188, lon.=26.491358, Alt.=112.180725m. Speed=14.292000m/h.</desc>
<speed>3.970000</speed>
</trkpt>
<trkpt lat="56.060608" lon="26.493244">
<ele>107.6</ele>
<time>2010-06-20T11:06:33Z</time>
<desc>lat.=56.060608, lon.=26.493244, Alt.=110.467834m. Speed=20.340000m/h.</desc>
<speed>5.650000</speed>
</trkpt>
<trkpt lat="56.062912" lon="26.497469">
<ele>107.7</ele>
<time>2010-06-20T11:08:08Z</time>
<desc>lat.=56.062912, lon.=26.497469, Alt.=114.833069m. Speed=14.148000m/h.</desc>
<speed>3.930000</speed>
</trkpt>
<trkpt lat="56.063438" lon="26.499493">
<ele>105.5</ele>
<time>2010-06-20T11:08:37Z</time>
<desc>lat.=56.063438, lon.=26.499493, Alt.=114.502991m. Speed=19.548000m/h.</desc>
<speed>5.430000</speed>
</trkpt>
<trkpt lat="56.064686" lon="26.502537">
<ele>107.3</ele>
<time>2010-06-20T11:09:45Z</time>
<desc>lat.=56.064686, lon.=26.502537, Alt.=107.454163m. Speed=12.204000m/h.</desc>
<speed>3.390000</speed>
</trkpt>
<trkpt lat="56.064644" lon="26.502853">
<ele>108.3</ele>
<time>2010-06-20T11:09:50Z</time>
<desc>lat.=56.064644, lon.=26.502853, Alt.=104.821350m. Speed=17.604000m/h.</desc>
<speed>4.890000</speed>
</trkpt>
<trkpt lat="56.064392" lon="26.503084">
<ele>110.3</ele>
<time>2010-06-20T11:09:56Z</time>
<desc>lat.=56.064392, lon.=26.503084, Alt.=104.788147m. Speed=17.028000m/h.</desc>
<speed>4.730000</speed>
</trkpt>
<trkpt lat="56.063034" lon="26.503830">
<ele>110.4</ele>
<time>2010-06-20T11:13:07Z</time>
<desc>lat.=56.063034, lon.=26.503830, Alt.=104.190491m. Speed=10.296000m/h.</desc>
<speed>2.860000</speed>
</trkpt>
<trkpt lat="56.061623" lon="26.503717">
<ele>105.8</ele>
<time>2010-06-20T11:13:53Z</time>
<desc>lat.=56.061623, lon.=26.503717, Alt.=105.038147m. Speed=13.752000m/h.</desc>
<speed>3.820000</speed>
</trkpt>
<trkpt lat="56.060997" lon="26.503935">
<ele>105.1</ele>
<time>2010-06-20T11:14:48Z</time>
<desc>lat.=56.060997, lon.=26.503935, Alt.=101.161194m. Speed=0.000000m/h.</desc>
<speed>0.000000</speed>
</trkpt>
<trkpt lat="56.062180" lon="26.507730">
<ele>108.0</ele>
<time>2010-06-20T11:17:22Z</time>
<desc>lat.=56.062180, lon.=26.507730, Alt.=118.233459m. Speed=14.940000m/h.</desc>
<speed>4.150000</speed>
</trkpt>
<trkpt lat="56.063156" lon="26.509911">
<ele>107.7</ele>
<time>2010-06-20T11:18:17Z</time>
<desc>lat.=56.063156, lon.=26.509911, Alt.=113.670959m. Speed=14.184000m/h.</desc>
<speed>3.940000</speed>
</trkpt>
<trkpt lat="56.064671" lon="26.512051">
<ele>108.3</ele>
<time>2010-06-20T11:19:10Z</time>
<desc>lat.=56.064671, lon.=26.512051, Alt.=111.741272m. Speed=16.920000m/h.</desc>
<speed>4.700000</speed>
</trkpt>
<trkpt lat="56.068768" lon="26.516277">
<ele>107.0</ele>
<time>2010-06-20T11:21:17Z</time>
<desc>lat.=56.068768, lon.=26.516277, Alt.=109.710022m. Speed=13.572000m/h.</desc>
<speed>3.770000</speed>
</trkpt>
<trkpt lat="56.069653" lon="26.517696">
<ele>101.2</ele>
<time>2010-06-20T11:21:49Z</time>
<desc>lat.=56.069653, lon.=26.517696, Alt.=102.938538m. Speed=17.100000m/h.</desc>
<speed>4.750000</speed>
</trkpt>
<trkpt lat="56.074886" lon="26.530575">
<ele>102.8</ele>
<time>2010-06-20T11:26:10Z</time>
<desc>lat.=56.074886, lon.=26.530575, Alt.=93.743225m. Speed=14.148000m/h.</desc>
<speed>3.930000</speed>
</trkpt>
<trkpt lat="56.076557" lon="26.534197">
<ele>108.6</ele>
<time>2010-06-20T11:27:33Z</time>
<desc>lat.=56.076557, lon.=26.534197, Alt.=102.471741m. Speed=13.176000m/h.</desc>
<speed>3.660000</speed>
</trkpt>
<trkpt lat="56.077515" lon="26.535389">
<ele>105.5</ele>
<time>2010-06-20T11:28:05Z</time>
<desc>lat.=56.077515, lon.=26.535389, Alt.=103.950256m. Speed=14.040000m/h.</desc>
<speed>3.900000</speed>
</trkpt>
<trkpt lat="56.083950" lon="26.541817">
<ele>100.7</ele>
<time>2010-06-20T11:31:47Z</time>
<desc>lat.=56.083950, lon.=26.541817, Alt.=95.555725m. Speed=11.628000m/h.</desc>
<speed>3.230000</speed>
</trkpt>
<trkpt lat="56.085102" lon="26.542786">
<ele>100.2</ele>
<time>2010-06-20T11:32:30Z</time>
<desc>lat.=56.085102, lon.=26.542786, Alt.=96.348694m. Speed=10.872000m/h.</desc>
<speed>3.020000</speed>
</trkpt>
<trkpt lat="56.086704" lon="26.543501">
<ele>99.0</ele>
<time>2010-06-20T11:33:21Z</time>
<desc>lat.=56.086704, lon.=26.543501, Alt.=96.813538m. Speed=12.816000m/h.</desc>
<speed>3.560000</speed>
</trkpt>
<trkpt lat="56.091614" lon="26.543596">
<ele>110.0</ele>
<time>2010-06-20T11:35:43Z</time>
<desc>lat.=56.091614, lon.=26.543596, Alt.=102.229553m. Speed=22.716000m/h.</desc>
<speed>6.310000</speed>
</trkpt>
<trkpt lat="56.096821" lon="26.543264">
<ele>110.3</ele>
<time>2010-06-20T11:37:56Z</time>
<desc>lat.=56.096821, lon.=26.543264, Alt.=106.327209m. Speed=13.572000m/h.</desc>
<speed>3.770000</speed>
</trkpt>
<trkpt lat="56.097118" lon="26.543303">
<ele>113.0</ele>
<time>2010-06-20T11:38:09Z</time>
<desc>lat.=56.097118, lon.=26.543303, Alt.=107.432678m. Speed=5.724000m/h.</desc>
<speed>1.590000</speed>
</trkpt>
<trkpt lat="56.097324" lon="26.543678">
<ele>111.8</ele>
<time>2010-06-20T11:38:28Z</time>
<desc>lat.=56.097324, lon.=26.543678, Alt.=109.645569m. Speed=8.568000m/h.</desc>
<speed>2.380000</speed>
</trkpt>
<trkpt lat="56.097057" lon="26.545486">
<ele>110.1</ele>
<time>2010-06-20T11:39:17Z</time>
<desc>lat.=56.097057, lon.=26.545486, Alt.=107.641663m. Speed=13.356000m/h.</desc>
<speed>3.710000</speed>
</trkpt>
<trkpt lat="56.097019" lon="26.546869">
<ele>113.0</ele>
<time>2010-06-20T11:39:49Z</time>
<desc>lat.=56.097019, lon.=26.546869, Alt.=106.364319m. Speed=5.328000m/h.</desc>
<speed>1.480000</speed>
</trkpt>
<trkpt lat="56.096870" lon="26.546936">
<ele>111.0</ele>
<time>2010-06-20T11:55:22Z</time>
<desc>lat.=56.096870, lon.=26.546936, Alt.=108.489319m. Speed=6.840000m/h.</desc>
<speed>1.900000</speed>
</trkpt>
<trkpt lat="56.095676" lon="26.552711">
<ele>112.8</ele>
<time>2010-06-20T11:57:58Z</time>
<desc>lat.=56.095676, lon.=26.552711, Alt.=102.987366m. Speed=16.920000m/h.</desc>
<speed>4.700000</speed>
</trkpt>
<trkpt lat="56.090588" lon="26.570984">
<ele>104.1</ele>
<time>2010-06-20T12:01:29Z</time>
<desc>lat.=56.090588, lon.=26.570984, Alt.=91.049866m. Speed=16.596001m/h.</desc>
<speed>4.610000</speed>
</trkpt>
<trkpt lat="56.089901" lon="26.572437">
<ele>103.7</ele>
<time>2010-06-20T12:01:55Z</time>
<desc>lat.=56.089901, lon.=26.572437, Alt.=88.024475m. Speed=15.876000m/h.</desc>
<speed>4.410000</speed>
</trkpt>
<trkpt lat="56.085876" lon="26.579348">
<ele>102.7</ele>
<time>2010-06-20T12:04:34Z</time>
<desc>lat.=56.085876, lon.=26.579348, Alt.=91.497131m. Speed=11.484000m/h.</desc>
<speed>3.190000</speed>
</trkpt>
<trkpt lat="56.085117" lon="26.581556">
<ele>106.4</ele>
<time>2010-06-20T12:05:16Z</time>
<desc>lat.=56.085117, lon.=26.581556, Alt.=91.956116m. Speed=17.639999m/h.</desc>
<speed>4.900000</speed>
</trkpt>
<trkpt lat="56.084896" lon="26.583935">
<ele>111.0</ele>
<time>2010-06-20T12:05:47Z</time>
<desc>lat.=56.084896, lon.=26.583935, Alt.=98.221741m. Speed=16.596001m/h.</desc>
<speed>4.610000</speed>
</trkpt>
<trkpt lat="56.085171" lon="26.590992">
<ele>112.8</ele>
<time>2010-06-20T12:07:17Z</time>
<desc>lat.=56.085171, lon.=26.590992, Alt.=106.016663m. Speed=21.275999m/h.</desc>
<speed>5.910000</speed>
</trkpt>
<trkpt lat="56.085186" lon="26.604401">
<ele>109.5</ele>
<time>2010-06-20T12:09:34Z</time>
<desc>lat.=56.085186, lon.=26.604401, Alt.=100.745178m. Speed=17.604000m/h.</desc>
<speed>4.890000</speed>
</trkpt>
<trkpt lat="56.085041" lon="26.606287">
<ele>106.8</ele>
<time>2010-06-20T12:09:58Z</time>
<desc>lat.=56.085041, lon.=26.606287, Alt.=109.001038m. Speed=16.667999m/h.</desc>
<speed>4.630000</speed>
</trkpt>
<trkpt lat="56.084759" lon="26.607691">
<ele>106.3</ele>
<time>2010-06-20T12:10:16Z</time>
<desc>lat.=56.084759, lon.=26.607691, Alt.=107.788147m. Speed=17.927999m/h.</desc>
<speed>4.980000</speed>
</trkpt>
<trkpt lat="56.082382" lon="26.613592">
<ele>106.6</ele>
<time>2010-06-20T12:11:48Z</time>
<desc>lat.=56.082382, lon.=26.613592, Alt.=100.108459m. Speed=23.544001m/h.</desc>
<speed>6.540000</speed>
</trkpt>
<trkpt lat="56.079273" lon="26.617855">
<ele>111.5</ele>
<time>2010-06-20T12:13:04Z</time>
<desc>lat.=56.079273, lon.=26.617855, Alt.=104.186584m. Speed=12.312000m/h.</desc>
<speed>3.420000</speed>
</trkpt>
<trkpt lat="56.078487" lon="26.619280">
<ele>114.1</ele>
<time>2010-06-20T12:13:41Z</time>
<desc>lat.=56.078487, lon.=26.619280, Alt.=111.522522m. Speed=13.356000m/h.</desc>
<speed>3.710000</speed>
</trkpt>
<trkpt lat="56.078011" lon="26.620979">
<ele>112.7</ele>
<time>2010-06-20T12:14:10Z</time>
<desc>lat.=56.078011, lon.=26.620979, Alt.=115.741272m. Speed=9.324000m/h.</desc>
<speed>2.590000</speed>
</trkpt>
<trkpt lat="56.077976" lon="26.622255">
<ele>110.0</ele>
<time>2010-06-20T12:14:36Z</time>
<desc>lat.=56.077976, lon.=26.622255, Alt.=125.612366m. Speed=9.936000m/h.</desc>
<speed>2.760000</speed>
</trkpt>
<trkpt lat="56.077496" lon="26.624643">
<ele>113.6</ele>
<time>2010-06-20T12:15:14Z</time>
<desc>lat.=56.077496, lon.=26.624643, Alt.=108.581116m. Speed=9.540000m/h.</desc>
<speed>2.650000</speed>
</trkpt>
<trkpt lat="56.075443" lon="26.629591">
<ele>118.1</ele>
<time>2010-06-20T12:16:27Z</time>
<desc>lat.=56.075443, lon.=26.629591, Alt.=88.495178m. Speed=16.955999m/h.</desc>
<speed>4.710000</speed>
</trkpt>
<trkpt lat="56.074467" lon="26.635685">
<ele>114.1</ele>
<time>2010-06-20T12:17:37Z</time>
<desc>lat.=56.074467, lon.=26.635685, Alt.=150.451294m. Speed=14.868000m/h.</desc>
<speed>4.130000</speed>
</trkpt>
<trkpt lat="56.074001" lon="26.637648">
<ele>115.4</ele>
<time>2010-06-20T12:17:50Z</time>
<desc>lat.=56.074001, lon.=26.637648, Alt.=139.076294m. Speed=16.596001m/h.</desc>
<speed>4.610000</speed>
</trkpt>
<trkpt lat="56.072964" lon="26.639538">
<ele>121.1</ele>
<time>2010-06-20T12:18:17Z</time>
<desc>lat.=56.072964, lon.=26.639538, Alt.=109.059631m. Speed=20.736000m/h.</desc>
<speed>5.760000</speed>
</trkpt>
<trkpt lat="56.071754" lon="26.642624">
<ele>112.4</ele>
<time>2010-06-20T12:18:56Z</time>
<desc>lat.=56.071754, lon.=26.642624, Alt.=109.743225m. Speed=19.944000m/h.</desc>
<speed>5.540000</speed>
</trkpt>
<trkpt lat="56.071613" lon="26.645094">
<ele>109.9</ele>
<time>2010-06-20T12:19:22Z</time>
<desc>lat.=56.071613, lon.=26.645094, Alt.=104.622131m. Speed=20.700001m/h.</desc>
<speed>5.750000</speed>
</trkpt>
<trkpt lat="56.072311" lon="26.665354">
<ele>118.6</ele>
<time>2010-06-20T12:23:03Z</time>
<desc>lat.=56.072311, lon.=26.665354, Alt.=109.575256m. Speed=19.584000m/h.</desc>
<speed>5.440000</speed>
</trkpt>
<trkpt lat="56.072403" lon="26.667013">
<ele>119.8</ele>
<time>2010-06-20T12:23:23Z</time>
<desc>lat.=56.072403, lon.=26.667013, Alt.=111.891663m. Speed=16.128000m/h.</desc>
<speed>4.480000</speed>
</trkpt>
<trkpt lat="56.072697" lon="26.668612">
<ele>118.4</ele>
<time>2010-06-20T12:23:57Z</time>
<desc>lat.=56.072697, lon.=26.668612, Alt.=115.083069m. Speed=0.972000m/h.</desc>
<speed>0.270000</speed>
</trkpt>
<trkpt lat="56.071007" lon="26.670088">
<ele>116.4</ele>
<time>2010-06-20T12:26:42Z</time>
<desc>lat.=56.071007, lon.=26.670088, Alt.=108.860413m. Speed=20.124001m/h.</desc>
<speed>5.590000</speed>
</trkpt>
<trkpt lat="56.068466" lon="26.671373">
<ele>116.2</ele>
<time>2010-06-20T12:27:37Z</time>
<desc>lat.=56.068466, lon.=26.671373, Alt.=104.573303m. Speed=20.412001m/h.</desc>
<speed>5.670000</speed>
</trkpt>
<trkpt lat="56.067589" lon="26.671492">
<ele>115.6</ele>
<time>2010-06-20T12:27:54Z</time>
<desc>lat.=56.067589, lon.=26.671492, Alt.=103.233459m. Speed=22.931999m/h.</desc>
<speed>6.370000</speed>
</trkpt>
<trkpt lat="56.066551" lon="26.671200">
<ele>115.4</ele>
<time>2010-06-20T12:28:13Z</time>
<desc>lat.=56.066551, lon.=26.671200, Alt.=102.374084m. Speed=18.684000m/h.</desc>
<speed>5.190000</speed>
</trkpt>
<trkpt lat="56.065376" lon="26.670511">
<ele>117.0</ele>
<time>2010-06-20T12:28:39Z</time>
<desc>lat.=56.065376, lon.=26.670511, Alt.=107.479553m. Speed=19.080000m/h.</desc>
<speed>5.300000</speed>
</trkpt>
<trkpt lat="56.062737" lon="26.668272">
<ele>116.2</ele>
<time>2010-06-20T12:29:33Z</time>
<desc>lat.=56.062737, lon.=26.668272, Alt.=105.688538m. Speed=20.591999m/h.</desc>
<speed>5.720000</speed>
</trkpt>
<trkpt lat="56.060596" lon="26.667906">
<ele>113.7</ele>
<time>2010-06-20T12:30:19Z</time>
<desc>lat.=56.060596, lon.=26.667906, Alt.=102.336975m. Speed=19.944000m/h.</desc>
<speed>5.540000</speed>
</trkpt>
<trkpt lat="56.054661" lon="26.666109">
<ele>118.5</ele>
<time>2010-06-20T12:32:54Z</time>
<desc>lat.=56.054661, lon.=26.666109, Alt.=104.116272m. Speed=17.316000m/h.</desc>
<speed>4.810000</speed>
</trkpt>
<trkpt lat="56.053646" lon="26.666048">
<ele>120.9</ele>
<time>2010-06-20T12:33:20Z</time>
<desc>lat.=56.053646, lon.=26.666048, Alt.=106.608459m. Speed=17.351999m/h.</desc>
<speed>4.820000</speed>
</trkpt>
<trkpt lat="56.049389" lon="26.666933">
<ele>121.2</ele>
<time>2010-06-20T12:35:03Z</time>
<desc>lat.=56.049389, lon.=26.666933, Alt.=99.667053m. Speed=20.591999m/h.</desc>
<speed>5.720000</speed>
</trkpt>
<trkpt lat="56.044434" lon="26.668230">
<ele>123.0</ele>
<time>2010-06-20T12:37:12Z</time>
<desc>lat.=56.044434, lon.=26.668230, Alt.=109.504944m. Speed=17.208000m/h.</desc>
<speed>4.780000</speed>
</trkpt>
<trkpt lat="56.040638" lon="26.670921">
<ele>123.3</ele>
<time>2010-06-20T12:38:52Z</time>
<desc>lat.=56.040638, lon.=26.670921, Alt.=109.512756m. Speed=18.900000m/h.</desc>
<speed>5.250000</speed>
</trkpt>
<trkpt lat="56.038479" lon="26.672993">
<ele>123.4</ele>
<time>2010-06-20T12:39:47Z</time>
<desc>lat.=56.038479, lon.=26.672993, Alt.=107.807678m. Speed=15.516000m/h.</desc>
<speed>4.310000</speed>
</trkpt>
<trkpt lat="56.036560" lon="26.676296">
<ele>122.9</ele>
<time>2010-06-20T12:40:50Z</time>
<desc>lat.=56.036560, lon.=26.676296, Alt.=110.768616m. Speed=10.080000m/h.</desc>
<speed>2.800000</speed>
</trkpt>
<trkpt lat="56.034069" lon="26.677225">
<ele>122.4</ele>
<time>2010-06-20T12:46:38Z</time>
<desc>lat.=56.034069, lon.=26.677225, Alt.=112.801819m. Speed=15.588000m/h.</desc>
<speed>4.330000</speed>
</trkpt>
<trkpt lat="56.032715" lon="26.675884">
<ele>123.3</ele>
<time>2010-06-20T12:47:23Z</time>
<desc>lat.=56.032715, lon.=26.675884, Alt.=110.458069m. Speed=15.012000m/h.</desc>
<speed>4.170000</speed>
</trkpt>
<trkpt lat="56.031239" lon="26.675806">
<ele>123.4</ele>
<time>2010-06-20T12:48:01Z</time>
<desc>lat.=56.031239, lon.=26.675806, Alt.=114.889709m. Speed=16.271999m/h.</desc>
<speed>4.520000</speed>
</trkpt>
<trkpt lat="56.027748" lon="26.673895">
<ele>125.1</ele>
<time>2010-06-20T12:49:37Z</time>
<desc>lat.=56.027748, lon.=26.673895, Alt.=110.079163m. Speed=16.164000m/h.</desc>
<speed>4.490000</speed>
</trkpt>
<trkpt lat="56.024574" lon="26.676435">
<ele>123.4</ele>
<time>2010-06-20T12:51:08Z</time>
<desc>lat.=56.024574, lon.=26.676435, Alt.=119.073303m. Speed=16.596001m/h.</desc>
<speed>4.610000</speed>
</trkpt>
<trkpt lat="56.021877" lon="26.676954">
<ele>122.8</ele>
<time>2010-06-20T12:52:16Z</time>
<desc>lat.=56.021877, lon.=26.676954, Alt.=123.036194m. Speed=16.236000m/h.</desc>
<speed>4.510000</speed>
</trkpt>
<trkpt lat="56.020859" lon="26.676285">
<ele>121.7</ele>
<time>2010-06-20T12:52:42Z</time>
<desc>lat.=56.020859, lon.=26.676285, Alt.=120.936584m. Speed=16.164000m/h.</desc>
<speed>4.490000</speed>
</trkpt>
<trkpt lat="56.018261" lon="26.673485">
<ele>126.0</ele>
<time>2010-06-20T12:54:05Z</time>
<desc>lat.=56.018261, lon.=26.673485, Alt.=114.270569m. Speed=15.048000m/h.</desc>
<speed>4.180000</speed>
</trkpt>
<trkpt lat="56.017651" lon="26.673311">
<ele>126.7</ele>
<time>2010-06-20T12:54:22Z</time>
<desc>lat.=56.017651, lon.=26.673311, Alt.=116.874084m. Speed=15.516000m/h.</desc>
<speed>4.310000</speed>
</trkpt>
<trkpt lat="56.013927" lon="26.675507">
<ele>127.0</ele>
<time>2010-06-20T12:56:00Z</time>
<desc>lat.=56.013927, lon.=26.675507, Alt.=123.907288m. Speed=15.588000m/h.</desc>
<speed>4.330000</speed>
</trkpt>
<trkpt lat="56.013268" lon="26.676584">
<ele>127.6</ele>
<time>2010-06-20T12:56:28Z</time>
<desc>lat.=56.013268, lon.=26.676584, Alt.=123.815491m. Speed=12.024000m/h.</desc>
<speed>3.340000</speed>
</trkpt>
<trkpt lat="56.012760" lon="26.677042">
<ele>127.1</ele>
<time>2010-06-20T12:56:44Z</time>
<desc>lat.=56.012760, lon.=26.677042, Alt.=124.323303m. Speed=15.048000m/h.</desc>
<speed>4.180000</speed>
</trkpt>
<trkpt lat="56.008163" lon="26.678940">
<ele>125.1</ele>
<time>2010-06-20T12:58:43Z</time>
<desc>lat.=56.008163, lon.=26.678940, Alt.=128.646606m. Speed=17.459999m/h.</desc>
<speed>4.850000</speed>
</trkpt>
<trkpt lat="56.006245" lon="26.681662">
<ele>127.8</ele>
<time>2010-06-20T12:59:45Z</time>
<desc>lat.=56.006245, lon.=26.681662, Alt.=126.460022m. Speed=17.028000m/h.</desc>
<speed>4.730000</speed>
</trkpt>
<trkpt lat="56.001904" lon="26.684553">
<ele>127.0</ele>
<time>2010-06-20T13:01:26Z</time>
<desc>lat.=56.001904, lon.=26.684553, Alt.=128.783325m. Speed=21.132000m/h.</desc>
<speed>5.870000</speed>
</trkpt>
<trkpt lat="55.996681" lon="26.686773">
<ele>125.6</ele>
<time>2010-06-20T13:03:19Z</time>
<desc>lat.=55.996681, lon.=26.686773, Alt.=130.994263m. Speed=19.728001m/h.</desc>
<speed>5.480000</speed>
</trkpt>
<trkpt lat="55.993420" lon="26.690119">
<ele>125.5</ele>
<time>2010-06-20T13:04:39Z</time>
<desc>lat.=55.993420, lon.=26.690119, Alt.=123.809631m. Speed=17.459999m/h.</desc>
<speed>4.850000</speed>
</trkpt>
<trkpt lat="55.992844" lon="26.691467">
<ele>127.5</ele>
<time>2010-06-20T13:10:22Z</time>
<desc>lat.=55.992844, lon.=26.691467, Alt.=129.845825m. Speed=0.000000m/h.</desc>
<speed>0.000000</speed>
</trkpt>
<trkpt lat="55.992447" lon="26.693029">
<ele>129.3</ele>
<time>2010-06-20T13:13:18Z</time>
<desc>lat.=55.992447, lon.=26.693029, Alt.=129.630981m. Speed=2.304000m/h.</desc>
<speed>0.640000</speed>
</trkpt>
<trkpt lat="55.971390" lon="26.674591">
<ele>121.5</ele>
<time>2010-06-20T13:21:27Z</time>
<desc>lat.=55.971390, lon.=26.674591, Alt.=123.393616m. Speed=22.752001m/h.</desc>
<speed>6.320000</speed>
</trkpt>
<trkpt lat="55.968082" lon="26.672186">
<ele>122.6</ele>
<time>2010-06-20T13:22:26Z</time>
<desc>lat.=55.968082, lon.=26.672186, Alt.=122.670959m. Speed=15.768000m/h.</desc>
<speed>4.380000</speed>
</trkpt>
<trkpt lat="55.964603" lon="26.669203">
<ele>121.5</ele>
<time>2010-06-20T13:27:08Z</time>
<desc>lat.=55.964603, lon.=26.669203, Alt.=121.493225m. Speed=10.944000m/h.</desc>
<speed>3.040000</speed>
</trkpt>
<trkpt lat="55.930248" lon="26.638327">
<ele>116.1</ele>
<time>2010-06-20T13:38:22Z</time>
<desc>lat.=55.930248, lon.=26.638327, Alt.=112.583069m. Speed=30.204000m/h.</desc>
<speed>8.390000</speed>
</trkpt>
<trkpt lat="55.929867" lon="26.637947">
<ele>117.2</ele>
<time>2010-06-20T13:38:32Z</time>
<desc>lat.=55.929867, lon.=26.637947, Alt.=112.335022m. Speed=0.828000m/h.</desc>
<speed>0.230000</speed>
</trkpt>
<trkpt lat="55.929737" lon="26.637245">
<ele>115.6</ele>
<time>2010-06-20T13:39:06Z</time>
<desc>lat.=55.929737, lon.=26.637245, Alt.=110.657288m. Speed=10.008000m/h.</desc>
<speed>2.780000</speed>
</trkpt>
<trkpt lat="55.929344" lon="26.637415">
<ele>116.2</ele>
<time>2010-06-20T13:39:37Z</time>
<desc>lat.=55.929344, lon.=26.637415, Alt.=115.286194m. Speed=13.824000m/h.</desc>
<speed>3.840000</speed>
</trkpt>
<trkpt lat="55.923992" lon="26.632792">
<ele>117.6</ele>
<time>2010-06-20T13:41:20Z</time>
<desc>lat.=55.923992, lon.=26.632792, Alt.=108.038147m. Speed=26.820000m/h.</desc>
<speed>7.450000</speed>
</trkpt>
<trkpt lat="55.909969" lon="26.620216">
<ele>126.2</ele>
<time>2010-06-20T13:45:15Z</time>
<desc>lat.=55.909969, lon.=26.620216, Alt.=123.952209m. Speed=23.112000m/h.</desc>
<speed>6.420000</speed>
</trkpt>
<trkpt lat="55.907722" lon="26.617954">
<ele>117.6</ele>
<time>2010-06-20T13:46:37Z</time>
<desc>lat.=55.907722, lon.=26.617954, Alt.=122.465881m. Speed=0.252000m/h.</desc>
<speed>0.070000</speed>
</trkpt>
<trkpt lat="55.907612" lon="26.618052">
<ele>118.5</ele>
<time>2010-06-20T13:50:32Z</time>
<desc>lat.=55.907612, lon.=26.618052, Alt.=119.725647m. Speed=6.336000m/h.</desc>
<speed>1.760000</speed>
</trkpt>
<trkpt lat="55.904957" lon="26.615944">
<ele>128.0</ele>
<time>2010-06-20T13:51:30Z</time>
<desc>lat.=55.904957, lon.=26.615944, Alt.=113.635803m. Speed=22.572001m/h.</desc>
<speed>6.270000</speed>
</trkpt>
<trkpt lat="55.899563" lon="26.610983">
<ele>121.7</ele>
<time>2010-06-20T13:53:41Z</time>
<desc>lat.=55.899563, lon.=26.610983, Alt.=122.301819m. Speed=0.144000m/h.</desc>
<speed>0.040000</speed>
</trkpt>
<trkpt lat="55.899151" lon="26.611542">
<ele>121.8</ele>
<time>2010-06-20T13:54:09Z</time>
<desc>lat.=55.899151, lon.=26.611542, Alt.=120.260803m. Speed=10.620000m/h.</desc>
<speed>2.950000</speed>
</trkpt>
<trkpt lat="55.899197" lon="26.610491">
<ele>121.5</ele>
<time>2010-06-20T13:54:41Z</time>
<desc>lat.=55.899197, lon.=26.610491, Alt.=111.993225m. Speed=14.688000m/h.</desc>
<speed>4.080000</speed>
</trkpt>
<trkpt lat="55.895679" lon="26.607338">
<ele>119.1</ele>
<time>2010-06-20T13:55:43Z</time>
<desc>lat.=55.895679, lon.=26.607338, Alt.=111.047913m. Speed=22.716000m/h.</desc>
<speed>6.310000</speed>
</trkpt>
<trkpt lat="55.895069" lon="26.605698">
<ele>119.0</ele>
<time>2010-06-20T13:56:02Z</time>
<desc>lat.=55.895069, lon.=26.605698, Alt.=108.874084m. Speed=22.427999m/h.</desc>
<speed>6.230000</speed>
</trkpt>
<trkpt lat="55.888405" lon="26.580307">
<ele>129.5</ele>
<time>2010-06-20T14:00:27Z</time>
<desc>lat.=55.888405, lon.=26.580307, Alt.=117.622131m. Speed=11.520000m/h.</desc>
<speed>3.200000</speed>
</trkpt>
<trkpt lat="55.893852" lon="26.581512">
<ele>138.2</ele>
<time>2010-06-20T14:05:40Z</time>
<desc>lat.=55.893852, lon.=26.581512, Alt.=122.331116m. Speed=20.016001m/h.</desc>
<speed>5.560000</speed>
</trkpt>
<trkpt lat="55.897160" lon="26.582577">
<ele>134.3</ele>
<time>2010-06-20T14:06:27Z</time>
<desc>lat.=55.897160, lon.=26.582577, Alt.=114.001038m. Speed=26.028000m/h.</desc>
<speed>7.230000</speed>
</trkpt>
<trkpt lat="55.898434" lon="26.583233">
<ele>129.8</ele>
<time>2010-06-20T14:06:48Z</time>
<desc>lat.=55.898434, lon.=26.583233, Alt.=115.266663m. Speed=15.804000m/h.</desc>
<speed>4.390000</speed>
</trkpt>
<trkpt lat="55.903252" lon="26.584520">
<ele>128.4</ele>
<time>2010-06-20T14:08:02Z</time>
<desc>lat.=55.903252, lon.=26.584520, Alt.=111.514709m. Speed=27.756001m/h.</desc>
<speed>7.710000</speed>
</trkpt>
<trkpt lat="55.903984" lon="26.584864">
<ele>119.5</ele>
<time>2010-06-20T14:08:12Z</time>
<desc>lat.=55.903984, lon.=26.584864, Alt.=108.551819m. Speed=27.000000m/h.</desc>
<speed>7.500000</speed>
</trkpt>
<trkpt lat="55.904671" lon="26.586067">
<ele>117.6</ele>
<time>2010-06-20T14:08:25Z</time>
<desc>lat.=55.904671, lon.=26.586067, Alt.=102.911194m. Speed=22.356001m/h.</desc>
<speed>6.210000</speed>
</trkpt>
<trkpt lat="55.905895" lon="26.584391">
<ele>121.9</ele>
<time>2010-06-20T14:08:49Z</time>
<desc>lat.=55.905895, lon.=26.584391, Alt.=110.958069m. Speed=16.920000m/h.</desc>
<speed>4.700000</speed>
</trkpt>
<trkpt lat="55.904774" lon="26.581682">
<ele>123.3</ele>
<time>2010-06-20T14:09:30Z</time>
<desc>lat.=55.904774, lon.=26.581682, Alt.=120.481506m. Speed=16.848000m/h.</desc>
<speed>4.680000</speed>
</trkpt>
<trkpt lat="55.904129" lon="26.580622">
<ele>125.6</ele>
<time>2010-06-20T14:09:54Z</time>
<desc>lat.=55.904129, lon.=26.580622, Alt.=133.392700m. Speed=10.728000m/h.</desc>
<speed>2.980000</speed>
</trkpt>
<trkpt lat="55.903755" lon="26.579153">
<ele>121.8</ele>
<time>2010-06-20T14:10:13Z</time>
<desc>lat.=55.903755, lon.=26.579153, Alt.=117.135803m. Speed=14.364000m/h.</desc>
<speed>3.990000</speed>
</trkpt>
<trkpt lat="55.903271" lon="26.578032">
<ele>131.0</ele>
<time>2010-06-20T14:10:30Z</time>
<desc>lat.=55.903271, lon.=26.578032, Alt.=127.741272m. Speed=18.180000m/h.</desc>
<speed>5.050000</speed>
</trkpt>
<trkpt lat="55.902573" lon="26.573795">
<ele>129.5</ele>
<time>2010-06-20T14:11:27Z</time>
<desc>lat.=55.902573, lon.=26.573795, Alt.=119.913147m. Speed=14.436000m/h.</desc>
<speed>4.010000</speed>
</trkpt>
<trkpt lat="55.902054" lon="26.571918">
<ele>129.0</ele>
<time>2010-06-20T14:11:49Z</time>
<desc>lat.=55.902054, lon.=26.571918, Alt.=136.677856m. Speed=20.628000m/h.</desc>
<speed>5.730000</speed>
</trkpt>
<trkpt lat="55.902073" lon="26.570307">
<ele>130.0</ele>
<time>2010-06-20T14:12:03Z</time>
<desc>lat.=55.902073, lon.=26.570307, Alt.=144.509888m. Speed=25.271999m/h.</desc>
<speed>7.020000</speed>
</trkpt>
<trkpt lat="55.901871" lon="26.569708">
<ele>127.0</ele>
<time>2010-06-20T14:12:09Z</time>
<desc>lat.=55.901871, lon.=26.569708, Alt.=144.259888m. Speed=27.576000m/h.</desc>
<speed>7.660000</speed>
</trkpt>
<trkpt lat="55.900600" lon="26.567070">
<ele>137.0</ele>
<time>2010-06-20T14:12:38Z</time>
<desc>lat.=55.900600, lon.=26.567070, Alt.=139.560669m. Speed=21.600000m/h.</desc>
<speed>6.000000</speed>
</trkpt>
<trkpt lat="55.897770" lon="26.564016">
<ele>121.7</ele>
<time>2010-06-20T14:13:27Z</time>
<desc>lat.=55.897770, lon.=26.564016, Alt.=119.881897m. Speed=23.219999m/h.</desc>
<speed>6.450000</speed>
</trkpt>
<trkpt lat="55.897152" lon="26.562952">
<ele>116.2</ele>
<time>2010-06-20T14:13:41Z</time>
<desc>lat.=55.897152, lon.=26.562952, Alt.=116.233459m. Speed=20.340000m/h.</desc>
<speed>5.650000</speed>
</trkpt>
<trkpt lat="55.894379" lon="26.545645">
<ele>115.5</ele>
<time>2010-06-20T14:16:17Z</time>
<desc>lat.=55.894379, lon.=26.545645, Alt.=108.809631m. Speed=30.024000m/h.</desc>
<speed>8.340000</speed>
</trkpt>
<trkpt lat="55.893833" lon="26.538801">
<ele>108.5</ele>
<time>2010-06-20T14:17:07Z</time>
<desc>lat.=55.893833, lon.=26.538801, Alt.=102.208069m. Speed=24.804001m/h.</desc>
<speed>6.890000</speed>
</trkpt>
<trkpt lat="55.894997" lon="26.536068">
<ele>107.8</ele>
<time>2010-06-20T14:17:47Z</time>
<desc>lat.=55.894997, lon.=26.536068, Alt.=98.919006m. Speed=15.840000m/h.</desc>
<speed>4.400000</speed>
</trkpt>
<trkpt lat="55.895107" lon="26.535078">
<ele>105.0</ele>
<time>2010-06-20T14:17:59Z</time>
<desc>lat.=55.895107, lon.=26.535078, Alt.=99.659241m. Speed=24.048000m/h.</desc>
<speed>6.680000</speed>
</trkpt>
<trkpt lat="55.896137" lon="26.532545">
<ele>104.3</ele>
<time>2010-06-20T14:18:26Z</time>
<desc>lat.=55.896137, lon.=26.532545, Alt.=96.463928m. Speed=20.844000m/h.</desc>
<speed>5.790000</speed>
</trkpt>
<trkpt lat="55.896385" lon="26.532593">
<ele>105.8</ele>
<time>2010-06-20T14:19:09Z</time>
<desc>lat.=55.896385, lon.=26.532593, Alt.=96.792053m. Speed=2.844000m/h.</desc>
<speed>0.790000</speed>
</trkpt>
<trkpt lat="55.896599" lon="26.532074">
<ele>106.1</ele>
<time>2010-06-20T14:19:26Z</time>
<desc>lat.=55.896599, lon.=26.532074, Alt.=100.034241m. Speed=7.740000m/h.</desc>
<speed>2.150000</speed>
</trkpt>
<trkpt lat="55.897022" lon="26.532217">
<ele>105.1</ele>
<time>2010-06-20T14:19:39Z</time>
<desc>lat.=55.897022, lon.=26.532217, Alt.=103.358459m. Speed=11.124000m/h.</desc>
<speed>3.090000</speed>
</trkpt>
<trkpt lat="55.897598" lon="26.530579">
<ele>106.3</ele>
<time>2010-06-20T14:20:28Z</time>
<desc>lat.=55.897598, lon.=26.530579, Alt.=102.766663m. Speed=2.520000m/h.</desc>
<speed>0.700000</speed>
</trkpt>
<trkpt lat="55.899082" lon="26.531340">
<ele>105.9</ele>
<time>2010-06-20T14:21:25Z</time>
<desc>lat.=55.899082, lon.=26.531340, Alt.=101.276428m. Speed=15.840000m/h.</desc>
<speed>4.400000</speed>
</trkpt>
<trkpt lat="55.900192" lon="26.528572">
<ele>110.8</ele>
<time>2010-06-20T14:22:41Z</time>
<desc>lat.=55.900192, lon.=26.528572, Alt.=107.637756m. Speed=0.540000m/h.</desc>
<speed>0.150000</speed>
</trkpt>
<trkpt lat="55.900383" lon="26.528698">
<ele>108.1</ele>
<time>2010-06-20T14:23:00Z</time>
<desc>lat.=55.900383, lon.=26.528698, Alt.=107.389709m. Speed=4.320000m/h.</desc>
<speed>1.200000</speed>
</trkpt>
<trkpt lat="55.900368" lon="26.529049">
<ele>109.2</ele>
<time>2010-06-20T14:23:24Z</time>
<desc>lat.=55.900368, lon.=26.529049, Alt.=106.864319m. Speed=0.792000m/h.</desc>
<speed>0.220000</speed>
</trkpt>
<trkpt lat="55.900230" lon="26.529150">
<ele>109.2</ele>
<time>2010-06-20T14:25:19Z</time>
<desc>lat.=55.900230, lon.=26.529150, Alt.=106.491272m. Speed=1.152000m/h.</desc>
<speed>0.320000</speed>
</trkpt>
<trkpt lat="55.900372" lon="26.528547">
<ele>108.0</ele>
<time>2010-06-20T14:41:09Z</time>
<desc>lat.=55.900372, lon.=26.528547, Alt.=108.280334m. Speed=3.672000m/h.</desc>
<speed>1.020000</speed>
</trkpt>
<trkpt lat="55.900139" lon="26.529242">
<ele>108.5</ele>
<time>2010-06-20T14:44:52Z</time>
<desc>lat.=55.900139, lon.=26.529242, Alt.=118.221741m. Speed=1.440000m/h.</desc>
<speed>0.400000</speed>
</trkpt>
<trkpt lat="55.900383" lon="26.528746">
<ele>108.2</ele>
<time>2010-06-20T14:51:55Z</time>
<desc>lat.=55.900383, lon.=26.528746, Alt.=122.194397m. Speed=2.340000m/h.</desc>
<speed>0.650000</speed>
</trkpt>
<trkpt lat="55.900288" lon="26.529104">
<ele>109.3</ele>
<time>2010-06-20T14:53:24Z</time>
<desc>lat.=55.900288, lon.=26.529104, Alt.=122.194397m. Speed=1.008000m/h.</desc>
<speed>0.280000</speed>
</trkpt>
<trkpt lat="55.900360" lon="26.528666">
<ele>108.4</ele>
<time>2010-06-20T14:54:05Z</time>
<desc>lat.=55.900360, lon.=26.528666, Alt.=123.774475m. Speed=1.440000m/h.</desc>
<speed>0.400000</speed>
</trkpt>
<trkpt lat="55.900116" lon="26.528933">
<ele>109.8</ele>
<time>2010-06-20T14:54:47Z</time>
<desc>lat.=55.900116, lon.=26.528933, Alt.=122.729553m. Speed=2.448000m/h.</desc>
<speed>0.680000</speed>
</trkpt>
<trkpt lat="55.900146" lon="26.529198">
<ele>108.8</ele>
<time>2010-06-20T14:56:28Z</time>
<desc>lat.=55.900146, lon.=26.529198, Alt.=118.792053m. Speed=3.096000m/h.</desc>
<speed>0.860000</speed>
</trkpt>
<trkpt lat="55.900280" lon="26.528780">
<ele>109.3</ele>
<time>2010-06-20T14:57:13Z</time>
<desc>lat.=55.900280, lon.=26.528780, Alt.=115.424866m. Speed=0.432000m/h.</desc>
<speed>0.120000</speed>
</trkpt>
<trkpt lat="55.900246" lon="26.529148">
<ele>109.2</ele>
<time>2010-06-20T14:57:31Z</time>
<desc>lat.=55.900246, lon.=26.529148, Alt.=115.417053m. Speed=7.236000m/h.</desc>
<speed>2.010000</speed>
</trkpt>
<trkpt lat="55.900414" lon="26.528385">
<ele>107.5</ele>
<time>2010-06-20T14:58:18Z</time>
<desc>lat.=55.900414, lon.=26.528385, Alt.=117.909241m. Speed=4.572000m/h.</desc>
<speed>1.270000</speed>
</trkpt>
<trkpt lat="55.900211" lon="26.529240">
<ele>109.0</ele>
<time>2010-06-20T15:00:28Z</time>
<desc>lat.=55.900211, lon.=26.529240, Alt.=116.698303m. Speed=0.792000m/h.</desc>
<speed>0.220000</speed>
</trkpt>
<trkpt lat="55.900372" lon="26.528543">
<ele>108.0</ele>
<time>2010-06-20T15:01:25Z</time>
<desc>lat.=55.900372, lon.=26.528543, Alt.=117.583069m. Speed=3.924000m/h.</desc>
<speed>1.090000</speed>
</trkpt>
<trkpt lat="55.900276" lon="26.528502">
<ele>109.5</ele>
<time>2010-06-20T15:01:42Z</time>
<desc>lat.=55.900276, lon.=26.528502, Alt.=119.063538m. Speed=2.448000m/h.</desc>
<speed>0.680000</speed>
</trkpt>
<trkpt lat="55.900230" lon="26.529102">
<ele>109.2</ele>
<time>2010-06-20T15:02:05Z</time>
<desc>lat.=55.900230, lon.=26.529102, Alt.=112.893616m. Speed=1.116000m/h.</desc>
<speed>0.310000</speed>
</trkpt>
<trkpt lat="55.900482" lon="26.528574">
<ele>107.7</ele>
<time>2010-06-20T15:02:48Z</time>
<desc>lat.=55.900482, lon.=26.528574, Alt.=104.100647m. Speed=2.844000m/h.</desc>
<speed>0.790000</speed>
</trkpt>
<trkpt lat="55.900330" lon="26.529005">
<ele>109.1</ele>
<time>2010-06-20T15:03:34Z</time>
<desc>lat.=55.900330, lon.=26.529005, Alt.=104.086975m. Speed=0.936000m/h.</desc>
<speed>0.260000</speed>
</trkpt>
<trkpt lat="55.900440" lon="26.528637">
<ele>107.6</ele>
<time>2010-06-20T15:04:11Z</time>
<desc>lat.=55.900440, lon.=26.528637, Alt.=105.211975m. Speed=3.024000m/h.</desc>
<speed>0.840000</speed>
</trkpt>
<trkpt lat="55.900181" lon="26.528967">
<ele>109.6</ele>
<time>2010-06-20T15:07:03Z</time>
<desc>lat.=55.900181, lon.=26.528967, Alt.=118.428772m. Speed=2.052000m/h.</desc>
<speed>0.570000</speed>
</trkpt>
<trkpt lat="55.900280" lon="26.528883">
<ele>109.2</ele>
<time>2010-06-20T15:08:13Z</time>
<desc>lat.=55.900280, lon.=26.528883, Alt.=112.450256m. Speed=2.700000m/h.</desc>
<speed>0.750000</speed>
</trkpt>
<trkpt lat="55.900253" lon="26.529181">
<ele>109.2</ele>
<time>2010-06-20T15:08:48Z</time>
<desc>lat.=55.900253, lon.=26.529181, Alt.=108.624084m. Speed=2.088000m/h.</desc>
<speed>0.580000</speed>
</trkpt>
<trkpt lat="55.900501" lon="26.528500">
<ele>107.8</ele>
<time>2010-06-20T15:09:46Z</time>
<desc>lat.=55.900501, lon.=26.528500, Alt.=101.512756m. Speed=3.708000m/h.</desc>
<speed>1.030000</speed>
</trkpt>
<trkpt lat="55.900299" lon="26.529192">
<ele>109.4</ele>
<time>2010-06-20T15:10:15Z</time>
<desc>lat.=55.900299, lon.=26.529192, Alt.=102.297913m. Speed=1.080000m/h.</desc>
<speed>0.300000</speed>
</trkpt>
<trkpt lat="55.900379" lon="26.528883">
<ele>108.6</ele>
<time>2010-06-20T15:12:11Z</time>
<desc>lat.=55.900379, lon.=26.528883, Alt.=106.403381m. Speed=1.404000m/h.</desc>
<speed>0.390000</speed>
</trkpt>
<trkpt lat="55.900146" lon="26.529011">
<ele>109.5</ele>
<time>2010-06-20T15:14:59Z</time>
<desc>lat.=55.900146, lon.=26.529011, Alt.=114.295959m. Speed=0.972000m/h.</desc>
<speed>0.270000</speed>
</trkpt>
<trkpt lat="55.900276" lon="26.528975">
<ele>109.2</ele>
<time>2010-06-20T15:17:45Z</time>
<desc>lat.=55.900276, lon.=26.528975, Alt.=115.399475m. Speed=0.684000m/h.</desc>
<speed>0.190000</speed>
</trkpt>
<trkpt lat="55.900181" lon="26.529169">
<ele>109.0</ele>
<time>2010-06-20T15:19:23Z</time>
<desc>lat.=55.900181, lon.=26.529169, Alt.=113.456116m. Speed=1.836000m/h.</desc>
<speed>0.510000</speed>
</trkpt>
<trkpt lat="55.900417" lon="26.528866">
<ele>108.3</ele>
<time>2010-06-20T15:22:43Z</time>
<desc>lat.=55.900417, lon.=26.528866, Alt.=105.715881m. Speed=2.088000m/h.</desc>
<speed>0.580000</speed>
</trkpt>
<trkpt lat="55.900005" lon="26.529289">
<ele>107.9</ele>
<time>2010-06-20T15:24:52Z</time>
<desc>lat.=55.900005, lon.=26.529289, Alt.=106.106506m. Speed=1.944000m/h.</desc>
<speed>0.540000</speed>
</trkpt>
<trkpt lat="55.900242" lon="26.529211">
<ele>109.2</ele>
<time>2010-06-20T15:25:03Z</time>
<desc>lat.=55.900242, lon.=26.529211, Alt.=103.877991m. Speed=2.592000m/h.</desc>
<speed>0.720000</speed>
</trkpt>
<trkpt lat="55.900249" lon="26.528933">
<ele>109.3</ele>
<time>2010-06-20T15:26:41Z</time>
<desc>lat.=55.900249, lon.=26.528933, Alt.=115.483459m. Speed=1.440000m/h.</desc>
<speed>0.400000</speed>
</trkpt>
<trkpt lat="55.900341" lon="26.529093">
<ele>109.3</ele>
<time>2010-06-20T15:27:26Z</time>
<desc>lat.=55.900341, lon.=26.529093, Alt.=117.217834m. Speed=1.368000m/h.</desc>
<speed>0.380000</speed>
</trkpt>
<trkpt lat="55.900280" lon="26.528910">
<ele>109.2</ele>
<time>2010-06-20T15:28:18Z</time>
<desc>lat.=55.900280, lon.=26.528910, Alt.=116.672913m. Speed=0.720000m/h.</desc>
<speed>0.200000</speed>
</trkpt>
<trkpt lat="55.900150" lon="26.529364">
<ele>108.1</ele>
<time>2010-06-20T15:29:40Z</time>
<desc>lat.=55.900150, lon.=26.529364, Alt.=116.057678m. Speed=2.268000m/h.</desc>
<speed>0.630000</speed>
</trkpt>
<trkpt lat="55.900246" lon="26.528788">
<ele>109.6</ele>
<time>2010-06-20T15:31:08Z</time>
<desc>lat.=55.900246, lon.=26.528788, Alt.=117.221741m. Speed=1.080000m/h.</desc>
<speed>0.300000</speed>
</trkpt>
<trkpt lat="55.900185" lon="26.529123">
<ele>109.1</ele>
<time>2010-06-20T15:31:49Z</time>
<desc>lat.=55.900185, lon.=26.529123, Alt.=118.223694m. Speed=1.620000m/h.</desc>
<speed>0.450000</speed>
</trkpt>
<trkpt lat="55.900333" lon="26.529060">
<ele>109.2</ele>
<time>2010-06-20T15:39:01Z</time>
<desc>lat.=55.900333, lon.=26.529060, Alt.=117.159241m. Speed=1.260000m/h.</desc>
<speed>0.350000</speed>
</trkpt>
<trkpt lat="55.900223" lon="26.529379">
<ele>108.9</ele>
<time>2010-06-20T15:39:54Z</time>
<desc>lat.=55.900223, lon.=26.529379, Alt.=116.624084m. Speed=2.016000m/h.</desc>
<speed>0.560000</speed>
</trkpt>
<trkpt lat="55.900303" lon="26.528849">
<ele>109.1</ele>
<time>2010-06-20T15:48:46Z</time>
<desc>lat.=55.900303, lon.=26.528849, Alt.=108.508850m. Speed=0.936000m/h.</desc>
<speed>0.260000</speed>
</trkpt>
<trkpt lat="55.900269" lon="26.529034">
<ele>109.3</ele>
<time>2010-06-20T15:53:37Z</time>
<desc>lat.=55.900269, lon.=26.529034, Alt.=113.471741m. Speed=0.396000m/h.</desc>
<speed>0.110000</speed>
</trkpt>
</trkseg>
</trk>
</gpx>